<?xml version="1.0" encoding="UTF-8" standalone="no" ?>
<gpx xmlns="http://www.topografix.com/GPX/1/1" xmlns:xsi="http://www.w3.org/2001/XMLSchema-instance" xsi:schemaLocation="http://www.topografix.com/GPX/1/1 http://www.topografix.com/GPX/1/1/gpx.xsd" version="1.1" creator="VisuGPX - https://www.visugpx.com">
  <metadata>
    <name>Sortie VTT Vaugneray</name>
    <desc><![CDATA[Sortie dans les monts du lyonnais]]></desc>
  </metadata>
  <trk>
    <name><![CDATA[Activity_303536493 on GPSies.com]]></name>
    <trkseg>
      <trkpt lat="45.73881" lon="4.65704">
        <ele>425</ele>
        <time>2010-01-01T00:00:00Z</time>
      </trkpt>
      <trkpt lat="45.73882" lon="4.65707">
        <ele>425</ele>
        <time>2010-01-01T00:00:01Z</time>
      </trkpt>
      <trkpt lat="45.73898" lon="4.65714">
        <ele>427</ele>
        <time>2010-01-01T00:00:07Z</time>
      </trkpt>
      <trkpt lat="45.7391" lon="4.65715">
        <ele>427</ele>
        <time>2010-01-01T00:00:12Z</time>
      </trkpt>
      <trkpt lat="45.73916" lon="4.65717">
        <ele>427</ele>
        <time>2010-01-01T00:00:14Z</time>
      </trkpt>
      <trkpt lat="45.73926" lon="4.65711">
        <ele>435</ele>
        <time>2010-01-01T00:00:19Z</time>
      </trkpt>
      <trkpt lat="45.73937" lon="4.65706">
        <ele>436</ele>
        <time>2010-01-01T00:00:23Z</time>
      </trkpt>
      <trkpt lat="45.73951" lon="4.65696">
        <ele>437</ele>
        <time>2010-01-01T00:00:30Z</time>
      </trkpt>
      <trkpt lat="45.73979" lon="4.65679">
        <ele>439</ele>
        <time>2010-01-01T00:00:41Z</time>
      </trkpt>
      <trkpt lat="45.73989" lon="4.65677">
        <ele>440</ele>
        <time>2010-01-01T00:00:46Z</time>
      </trkpt>
      <trkpt lat="45.74002" lon="4.65671">
        <ele>444</ele>
        <time>2010-01-01T00:00:51Z</time>
      </trkpt>
      <trkpt lat="45.74015" lon="4.65663">
        <ele>445</ele>
        <time>2010-01-01T00:00:57Z</time>
      </trkpt>
      <trkpt lat="45.74025" lon="4.65649">
        <ele>446</ele>
        <time>2010-01-01T00:01:03Z</time>
      </trkpt>
      <trkpt lat="45.74035" lon="4.65631">
        <ele>447</ele>
        <time>2010-01-01T00:01:09Z</time>
      </trkpt>
      <trkpt lat="45.74044" lon="4.65615">
        <ele>448</ele>
        <time>2010-01-01T00:01:15Z</time>
      </trkpt>
      <trkpt lat="45.74051" lon="4.65599">
        <ele>448</ele>
        <time>2010-01-01T00:01:20Z</time>
      </trkpt>
      <trkpt lat="45.74059" lon="4.65612">
        <ele>449</ele>
        <time>2010-01-01T00:01:25Z</time>
      </trkpt>
      <trkpt lat="45.74057" lon="4.65624">
        <ele>449</ele>
        <time>2010-01-01T00:01:28Z</time>
      </trkpt>
      <trkpt lat="45.74059" lon="4.6566">
        <ele>451</ele>
        <time>2010-01-01T00:01:38Z</time>
      </trkpt>
      <trkpt lat="45.74059" lon="4.65685">
        <ele>453</ele>
        <time>2010-01-01T00:01:45Z</time>
      </trkpt>
      <trkpt lat="45.7403" lon="4.65738">
        <ele>452</ele>
        <time>2010-01-01T00:02:04Z</time>
      </trkpt>
      <trkpt lat="45.74004" lon="4.6585">
        <ele>453</ele>
        <time>2010-01-01T00:02:37Z</time>
      </trkpt>
      <trkpt lat="45.73991" lon="4.6592">
        <ele>446</ele>
        <time>2010-01-01T00:02:57Z</time>
      </trkpt>
      <trkpt lat="45.73957" lon="4.65968">
        <ele>444</ele>
        <time>2010-01-01T00:03:16Z</time>
      </trkpt>
      <trkpt lat="45.73939" lon="4.66005">
        <ele>447</ele>
        <time>2010-01-01T00:03:29Z</time>
      </trkpt>
      <trkpt lat="45.73916" lon="4.66046">
        <ele>443</ele>
        <time>2010-01-01T00:03:43Z</time>
      </trkpt>
      <trkpt lat="45.73899" lon="4.66085">
        <ele>449</ele>
        <time>2010-01-01T00:03:56Z</time>
      </trkpt>
      <trkpt lat="45.73887" lon="4.66145">
        <ele>450</ele>
        <time>2010-01-01T00:04:14Z</time>
      </trkpt>
      <trkpt lat="45.73873" lon="4.66189">
        <ele>453</ele>
        <time>2010-01-01T00:04:27Z</time>
      </trkpt>
      <trkpt lat="45.73861" lon="4.66225">
        <ele>454</ele>
        <time>2010-01-01T00:04:38Z</time>
      </trkpt>
      <trkpt lat="45.73852" lon="4.66249">
        <ele>454</ele>
        <time>2010-01-01T00:04:46Z</time>
      </trkpt>
      <trkpt lat="45.73851" lon="4.6629">
        <ele>456</ele>
        <time>2010-01-01T00:04:58Z</time>
      </trkpt>
      <trkpt lat="45.73867" lon="4.66281">
        <ele>456</ele>
        <time>2010-01-01T00:05:04Z</time>
      </trkpt>
      <trkpt lat="45.7388" lon="4.6627">
        <ele>457</ele>
        <time>2010-01-01T00:05:10Z</time>
      </trkpt>
      <trkpt lat="45.73892" lon="4.66263">
        <ele>457</ele>
        <time>2010-01-01T00:05:16Z</time>
      </trkpt>
      <trkpt lat="45.73918" lon="4.66243">
        <ele>459</ele>
        <time>2010-01-01T00:05:27Z</time>
      </trkpt>
      <trkpt lat="45.73938" lon="4.66233">
        <ele>460</ele>
        <time>2010-01-01T00:05:36Z</time>
      </trkpt>
      <trkpt lat="45.73964" lon="4.66227">
        <ele>461</ele>
        <time>2010-01-01T00:05:47Z</time>
      </trkpt>
      <trkpt lat="45.73986" lon="4.66219">
        <ele>462</ele>
        <time>2010-01-01T00:05:55Z</time>
      </trkpt>
      <trkpt lat="45.74013" lon="4.66211">
        <ele>465</ele>
        <time>2010-01-01T00:06:07Z</time>
      </trkpt>
      <trkpt lat="45.74068" lon="4.66192">
        <ele>466</ele>
        <time>2010-01-01T00:06:29Z</time>
      </trkpt>
      <trkpt lat="45.741" lon="4.66172">
        <ele>467</ele>
        <time>2010-01-01T00:06:43Z</time>
      </trkpt>
      <trkpt lat="45.74119" lon="4.66158">
        <ele>471</ele>
        <time>2010-01-01T00:06:52Z</time>
      </trkpt>
      <trkpt lat="45.74144" lon="4.6614">
        <ele>472</ele>
        <time>2010-01-01T00:07:03Z</time>
      </trkpt>
      <trkpt lat="45.7416" lon="4.66125">
        <ele>473</ele>
        <time>2010-01-01T00:07:11Z</time>
      </trkpt>
      <trkpt lat="45.74188" lon="4.66089">
        <ele>476</ele>
        <time>2010-01-01T00:07:26Z</time>
      </trkpt>
      <trkpt lat="45.74213" lon="4.66051">
        <ele>478</ele>
        <time>2010-01-01T00:07:40Z</time>
      </trkpt>
      <trkpt lat="45.74224" lon="4.66027">
        <ele>479</ele>
        <time>2010-01-01T00:07:48Z</time>
      </trkpt>
      <trkpt lat="45.74233" lon="4.6601">
        <ele>480</ele>
        <time>2010-01-01T00:07:54Z</time>
      </trkpt>
      <trkpt lat="45.74251" lon="4.65962">
        <ele>481</ele>
        <time>2010-01-01T00:08:09Z</time>
      </trkpt>
      <trkpt lat="45.74258" lon="4.65939">
        <ele>482</ele>
        <time>2010-01-01T00:08:17Z</time>
      </trkpt>
      <trkpt lat="45.74269" lon="4.65903">
        <ele>484</ele>
        <time>2010-01-01T00:08:28Z</time>
      </trkpt>
      <trkpt lat="45.74301" lon="4.65807">
        <ele>482</ele>
        <time>2010-01-01T00:08:57Z</time>
      </trkpt>
      <trkpt lat="45.74347" lon="4.65743">
        <ele>481</ele>
        <time>2010-01-01T00:09:23Z</time>
      </trkpt>
      <trkpt lat="45.74395" lon="4.65677">
        <ele>480</ele>
        <time>2010-01-01T00:09:49Z</time>
      </trkpt>
      <trkpt lat="45.7445" lon="4.656">
        <ele>482</ele>
        <time>2010-01-01T00:10:20Z</time>
      </trkpt>
      <trkpt lat="45.74481" lon="4.65535">
        <ele>485</ele>
        <time>2010-01-01T00:10:42Z</time>
      </trkpt>
      <trkpt lat="45.74498" lon="4.65506">
        <ele>487</ele>
        <time>2010-01-01T00:10:53Z</time>
      </trkpt>
      <trkpt lat="45.7452" lon="4.65469">
        <ele>489</ele>
        <time>2010-01-01T00:11:07Z</time>
      </trkpt>
      <trkpt lat="45.74549" lon="4.65419">
        <ele>490</ele>
        <time>2010-01-01T00:11:25Z</time>
      </trkpt>
      <trkpt lat="45.74565" lon="4.65389">
        <ele>491</ele>
        <time>2010-01-01T00:11:35Z</time>
      </trkpt>
      <trkpt lat="45.746" lon="4.65329">
        <ele>492</ele>
        <time>2010-01-01T00:11:57Z</time>
      </trkpt>
      <trkpt lat="45.74606" lon="4.65298">
        <ele>491</ele>
        <time>2010-01-01T00:12:06Z</time>
      </trkpt>
      <trkpt lat="45.74612" lon="4.65246">
        <ele>497</ele>
        <time>2010-01-01T00:12:21Z</time>
      </trkpt>
      <trkpt lat="45.74616" lon="4.65215">
        <ele>497</ele>
        <time>2010-01-01T00:12:29Z</time>
      </trkpt>
      <trkpt lat="45.7462" lon="4.65189">
        <ele>498</ele>
        <time>2010-01-01T00:12:37Z</time>
      </trkpt>
      <trkpt lat="45.74623" lon="4.65173">
        <ele>499</ele>
        <time>2010-01-01T00:12:42Z</time>
      </trkpt>
      <trkpt lat="45.74622" lon="4.65158">
        <ele>503</ele>
        <time>2010-01-01T00:12:46Z</time>
      </trkpt>
      <trkpt lat="45.74621" lon="4.65138">
        <ele>504</ele>
        <time>2010-01-01T00:12:51Z</time>
      </trkpt>
      <trkpt lat="45.74622" lon="4.6512">
        <ele>505</ele>
        <time>2010-01-01T00:12:56Z</time>
      </trkpt>
      <trkpt lat="45.74624" lon="4.65096">
        <ele>505</ele>
        <time>2010-01-01T00:13:03Z</time>
      </trkpt>
      <trkpt lat="45.74628" lon="4.65039">
        <ele>509</ele>
        <time>2010-01-01T00:13:19Z</time>
      </trkpt>
      <trkpt lat="45.74631" lon="4.65021">
        <ele>509</ele>
        <time>2010-01-01T00:13:24Z</time>
      </trkpt>
      <trkpt lat="45.7464" lon="4.64981">
        <ele>513</ele>
        <time>2010-01-01T00:13:36Z</time>
      </trkpt>
      <trkpt lat="45.74645" lon="4.6496">
        <ele>514</ele>
        <time>2010-01-01T00:13:42Z</time>
      </trkpt>
      <trkpt lat="45.74657" lon="4.64913">
        <ele>519</ele>
        <time>2010-01-01T00:13:56Z</time>
      </trkpt>
      <trkpt lat="45.74664" lon="4.64889">
        <ele>520</ele>
        <time>2010-01-01T00:14:04Z</time>
      </trkpt>
      <trkpt lat="45.74669" lon="4.64867">
        <ele>519</ele>
        <time>2010-01-01T00:14:10Z</time>
      </trkpt>
      <trkpt lat="45.74674" lon="4.64846">
        <ele>522</ele>
        <time>2010-01-01T00:14:16Z</time>
      </trkpt>
      <trkpt lat="45.74673" lon="4.64822">
        <ele>526</ele>
        <time>2010-01-01T00:14:23Z</time>
      </trkpt>
      <trkpt lat="45.74667" lon="4.64809">
        <ele>527</ele>
        <time>2010-01-01T00:14:27Z</time>
      </trkpt>
      <trkpt lat="45.74658" lon="4.648">
        <ele>529</ele>
        <time>2010-01-01T00:14:32Z</time>
      </trkpt>
      <trkpt lat="45.74652" lon="4.64794">
        <ele>530</ele>
        <time>2010-01-01T00:14:34Z</time>
      </trkpt>
      <trkpt lat="45.7464" lon="4.64784">
        <ele>531</ele>
        <time>2010-01-01T00:14:40Z</time>
      </trkpt>
      <trkpt lat="45.74629" lon="4.64769">
        <ele>532</ele>
        <time>2010-01-01T00:14:46Z</time>
      </trkpt>
      <trkpt lat="45.74621" lon="4.64759">
        <ele>532</ele>
        <time>2010-01-01T00:14:51Z</time>
      </trkpt>
      <trkpt lat="45.74615" lon="4.64751">
        <ele>532</ele>
        <time>2010-01-01T00:14:54Z</time>
      </trkpt>
      <trkpt lat="45.74608" lon="4.64739">
        <ele>541</ele>
        <time>2010-01-01T00:14:58Z</time>
      </trkpt>
      <trkpt lat="45.74582" lon="4.64724">
        <ele>540</ele>
        <time>2010-01-01T00:15:09Z</time>
      </trkpt>
      <trkpt lat="45.7457" lon="4.64715">
        <ele>540</ele>
        <time>2010-01-01T00:15:14Z</time>
      </trkpt>
      <trkpt lat="45.74562" lon="4.64705">
        <ele>541</ele>
        <time>2010-01-01T00:15:19Z</time>
      </trkpt>
      <trkpt lat="45.74557" lon="4.64696">
        <ele>542</ele>
        <time>2010-01-01T00:15:22Z</time>
      </trkpt>
      <trkpt lat="45.74552" lon="4.64674">
        <ele>543</ele>
        <time>2010-01-01T00:15:29Z</time>
      </trkpt>
      <trkpt lat="45.74546" lon="4.64655">
        <ele>550</ele>
        <time>2010-01-01T00:15:34Z</time>
      </trkpt>
      <trkpt lat="45.74537" lon="4.6463">
        <ele>551</ele>
        <time>2010-01-01T00:15:42Z</time>
      </trkpt>
      <trkpt lat="45.74529" lon="4.6461">
        <ele>551</ele>
        <time>2010-01-01T00:15:49Z</time>
      </trkpt>
      <trkpt lat="45.74526" lon="4.646">
        <ele>552</ele>
        <time>2010-01-01T00:15:52Z</time>
      </trkpt>
      <trkpt lat="45.74519" lon="4.64585">
        <ele>551</ele>
        <time>2010-01-01T00:15:57Z</time>
      </trkpt>
      <trkpt lat="45.74514" lon="4.64564">
        <ele>557</ele>
        <time>2010-01-01T00:16:03Z</time>
      </trkpt>
      <trkpt lat="45.74513" lon="4.64542">
        <ele>560</ele>
        <time>2010-01-01T00:16:09Z</time>
      </trkpt>
      <trkpt lat="45.74508" lon="4.64525">
        <ele>560</ele>
        <time>2010-01-01T00:16:14Z</time>
      </trkpt>
      <trkpt lat="45.74507" lon="4.64511">
        <ele>560</ele>
        <time>2010-01-01T00:16:18Z</time>
      </trkpt>
      <trkpt lat="45.74505" lon="4.6449">
        <ele>563</ele>
        <time>2010-01-01T00:16:24Z</time>
      </trkpt>
      <trkpt lat="45.74502" lon="4.64474">
        <ele>566</ele>
        <time>2010-01-01T00:16:29Z</time>
      </trkpt>
      <trkpt lat="45.74498" lon="4.64457">
        <ele>555</ele>
        <time>2010-01-01T00:16:34Z</time>
      </trkpt>
      <trkpt lat="45.745" lon="4.64436">
        <ele>558</ele>
        <time>2010-01-01T00:16:40Z</time>
      </trkpt>
      <trkpt lat="45.74498" lon="4.64418">
        <ele>564</ele>
        <time>2010-01-01T00:16:45Z</time>
      </trkpt>
      <trkpt lat="45.74495" lon="4.64396">
        <ele>560</ele>
        <time>2010-01-01T00:16:51Z</time>
      </trkpt>
      <trkpt lat="45.74501" lon="4.64388">
        <ele>572</ele>
        <time>2010-01-01T00:16:54Z</time>
      </trkpt>
      <trkpt lat="45.74508" lon="4.64394">
        <ele>572</ele>
        <time>2010-01-01T00:16:58Z</time>
      </trkpt>
      <trkpt lat="45.74517" lon="4.64403">
        <ele>572</ele>
        <time>2010-01-01T00:17:02Z</time>
      </trkpt>
      <trkpt lat="45.74524" lon="4.6442">
        <ele>570</ele>
        <time>2010-01-01T00:17:07Z</time>
      </trkpt>
      <trkpt lat="45.74531" lon="4.64438">
        <ele>571</ele>
        <time>2010-01-01T00:17:13Z</time>
      </trkpt>
      <trkpt lat="45.74542" lon="4.64452">
        <ele>571</ele>
        <time>2010-01-01T00:17:19Z</time>
      </trkpt>
      <trkpt lat="45.74555" lon="4.64466">
        <ele>572</ele>
        <time>2010-01-01T00:17:25Z</time>
      </trkpt>
      <trkpt lat="45.74565" lon="4.64475">
        <ele>573</ele>
        <time>2010-01-01T00:17:30Z</time>
      </trkpt>
      <trkpt lat="45.74584" lon="4.64485">
        <ele>580</ele>
        <time>2010-01-01T00:17:39Z</time>
      </trkpt>
      <trkpt lat="45.74595" lon="4.6449">
        <ele>580</ele>
        <time>2010-01-01T00:17:43Z</time>
      </trkpt>
      <trkpt lat="45.74607" lon="4.64489">
        <ele>582</ele>
        <time>2010-01-01T00:17:48Z</time>
      </trkpt>
      <trkpt lat="45.74637" lon="4.64484">
        <ele>584</ele>
        <time>2010-01-01T00:18:00Z</time>
      </trkpt>
      <trkpt lat="45.74646" lon="4.64482">
        <ele>585</ele>
        <time>2010-01-01T00:18:04Z</time>
      </trkpt>
      <trkpt lat="45.74658" lon="4.6448">
        <ele>585</ele>
        <time>2010-01-01T00:18:08Z</time>
      </trkpt>
      <trkpt lat="45.7467" lon="4.64473">
        <ele>589</ele>
        <time>2010-01-01T00:18:13Z</time>
      </trkpt>
      <trkpt lat="45.74687" lon="4.64455">
        <ele>590</ele>
        <time>2010-01-01T00:18:22Z</time>
      </trkpt>
      <trkpt lat="45.74695" lon="4.64442">
        <ele>591</ele>
        <time>2010-01-01T00:18:27Z</time>
      </trkpt>
      <trkpt lat="45.74702" lon="4.64434">
        <ele>592</ele>
        <time>2010-01-01T00:18:30Z</time>
      </trkpt>
      <trkpt lat="45.74707" lon="4.6442">
        <ele>592</ele>
        <time>2010-01-01T00:18:35Z</time>
      </trkpt>
      <trkpt lat="45.74716" lon="4.64408">
        <ele>598</ele>
        <time>2010-01-01T00:18:40Z</time>
      </trkpt>
      <trkpt lat="45.7473" lon="4.64388">
        <ele>599</ele>
        <time>2010-01-01T00:18:48Z</time>
      </trkpt>
      <trkpt lat="45.74738" lon="4.64379">
        <ele>599</ele>
        <time>2010-01-01T00:18:52Z</time>
      </trkpt>
      <trkpt lat="45.74756" lon="4.64355">
        <ele>600</ele>
        <time>2010-01-01T00:19:01Z</time>
      </trkpt>
      <trkpt lat="45.74776" lon="4.64329">
        <ele>607</ele>
        <time>2010-01-01T00:19:12Z</time>
      </trkpt>
      <trkpt lat="45.74787" lon="4.64314">
        <ele>608</ele>
        <time>2010-01-01T00:19:18Z</time>
      </trkpt>
      <trkpt lat="45.74795" lon="4.64299">
        <ele>608</ele>
        <time>2010-01-01T00:19:24Z</time>
      </trkpt>
      <trkpt lat="45.748" lon="4.6429">
        <ele>609</ele>
        <time>2010-01-01T00:19:27Z</time>
      </trkpt>
      <trkpt lat="45.74814" lon="4.64274">
        <ele>610</ele>
        <time>2010-01-01T00:19:34Z</time>
      </trkpt>
      <trkpt lat="45.74827" lon="4.6426">
        <ele>611</ele>
        <time>2010-01-01T00:19:41Z</time>
      </trkpt>
      <trkpt lat="45.74836" lon="4.64249">
        <ele>613</ele>
        <time>2010-01-01T00:19:45Z</time>
      </trkpt>
      <trkpt lat="45.74856" lon="4.64218">
        <ele>615</ele>
        <time>2010-01-01T00:19:57Z</time>
      </trkpt>
      <trkpt lat="45.7487" lon="4.64196">
        <ele>616</ele>
        <time>2010-01-01T00:20:05Z</time>
      </trkpt>
      <trkpt lat="45.74883" lon="4.6418">
        <ele>617</ele>
        <time>2010-01-01T00:20:12Z</time>
      </trkpt>
      <trkpt lat="45.74892" lon="4.64164">
        <ele>622</ele>
        <time>2010-01-01T00:20:18Z</time>
      </trkpt>
      <trkpt lat="45.74906" lon="4.64134">
        <ele>623</ele>
        <time>2010-01-01T00:20:28Z</time>
      </trkpt>
      <trkpt lat="45.74921" lon="4.6411">
        <ele>623</ele>
        <time>2010-01-01T00:20:37Z</time>
      </trkpt>
      <trkpt lat="45.74928" lon="4.64097">
        <ele>623</ele>
        <time>2010-01-01T00:20:42Z</time>
      </trkpt>
      <trkpt lat="45.74943" lon="4.64072">
        <ele>629</ele>
        <time>2010-01-01T00:20:51Z</time>
      </trkpt>
      <trkpt lat="45.74955" lon="4.64049">
        <ele>631</ele>
        <time>2010-01-01T00:20:59Z</time>
      </trkpt>
      <trkpt lat="45.74971" lon="4.64022">
        <ele>633</ele>
        <time>2010-01-01T00:21:09Z</time>
      </trkpt>
      <trkpt lat="45.74976" lon="4.64013">
        <ele>634</ele>
        <time>2010-01-01T00:21:12Z</time>
      </trkpt>
      <trkpt lat="45.74987" lon="4.63994">
        <ele>638</ele>
        <time>2010-01-01T00:21:19Z</time>
      </trkpt>
      <trkpt lat="45.74997" lon="4.63981">
        <ele>638</ele>
        <time>2010-01-01T00:21:24Z</time>
      </trkpt>
      <trkpt lat="45.75004" lon="4.63968">
        <ele>643</ele>
        <time>2010-01-01T00:21:29Z</time>
      </trkpt>
      <trkpt lat="45.75011" lon="4.63957">
        <ele>644</ele>
        <time>2010-01-01T00:21:33Z</time>
      </trkpt>
      <trkpt lat="45.75015" lon="4.63953">
        <ele>644</ele>
        <time>2010-01-01T00:21:35Z</time>
      </trkpt>
      <trkpt lat="45.75025" lon="4.63936">
        <ele>645</ele>
        <time>2010-01-01T00:21:41Z</time>
      </trkpt>
      <trkpt lat="45.75038" lon="4.63925">
        <ele>646</ele>
        <time>2010-01-01T00:21:47Z</time>
      </trkpt>
      <trkpt lat="45.75047" lon="4.6392">
        <ele>647</ele>
        <time>2010-01-01T00:21:51Z</time>
      </trkpt>
      <trkpt lat="45.75056" lon="4.63913">
        <ele>648</ele>
        <time>2010-01-01T00:21:55Z</time>
      </trkpt>
      <trkpt lat="45.75067" lon="4.63904">
        <ele>649</ele>
        <time>2010-01-01T00:22:00Z</time>
      </trkpt>
      <trkpt lat="45.75077" lon="4.63897">
        <ele>649</ele>
        <time>2010-01-01T00:22:05Z</time>
      </trkpt>
      <trkpt lat="45.75087" lon="4.63889">
        <ele>652</ele>
        <time>2010-01-01T00:22:09Z</time>
      </trkpt>
      <trkpt lat="45.751" lon="4.6388">
        <ele>652</ele>
        <time>2010-01-01T00:22:15Z</time>
      </trkpt>
      <trkpt lat="45.75111" lon="4.63866">
        <ele>652</ele>
        <time>2010-01-01T00:22:21Z</time>
      </trkpt>
      <trkpt lat="45.7513" lon="4.63855">
        <ele>652</ele>
        <time>2010-01-01T00:22:29Z</time>
      </trkpt>
      <trkpt lat="45.75146" lon="4.63846">
        <ele>652</ele>
        <time>2010-01-01T00:22:36Z</time>
      </trkpt>
      <trkpt lat="45.75189" lon="4.63836">
        <ele>652</ele>
        <time>2010-01-01T00:22:53Z</time>
      </trkpt>
      <trkpt lat="45.75238" lon="4.63781">
        <ele>653</ele>
        <time>2010-01-01T00:23:18Z</time>
      </trkpt>
      <trkpt lat="45.75248" lon="4.6376">
        <ele>655</ele>
        <time>2010-01-01T00:23:25Z</time>
      </trkpt>
      <trkpt lat="45.7527" lon="4.63698">
        <ele>662</ele>
        <time>2010-01-01T00:23:45Z</time>
      </trkpt>
      <trkpt lat="45.75269" lon="4.63673">
        <ele>662</ele>
        <time>2010-01-01T00:23:52Z</time>
      </trkpt>
      <trkpt lat="45.75267" lon="4.63651">
        <ele>667</ele>
        <time>2010-01-01T00:23:58Z</time>
      </trkpt>
      <trkpt lat="45.75264" lon="4.6363">
        <ele>669</ele>
        <time>2010-01-01T00:24:04Z</time>
      </trkpt>
      <trkpt lat="45.75262" lon="4.63618">
        <ele>670</ele>
        <time>2010-01-01T00:24:08Z</time>
      </trkpt>
      <trkpt lat="45.75258" lon="4.6359">
        <ele>669</ele>
        <time>2010-01-01T00:24:15Z</time>
      </trkpt>
      <trkpt lat="45.75253" lon="4.6357">
        <ele>674</ele>
        <time>2010-01-01T00:24:21Z</time>
      </trkpt>
      <trkpt lat="45.75249" lon="4.63548">
        <ele>664</ele>
        <time>2010-01-01T00:24:28Z</time>
      </trkpt>
      <trkpt lat="45.75247" lon="4.63532">
        <ele>666</ele>
        <time>2010-01-01T00:24:32Z</time>
      </trkpt>
      <trkpt lat="45.75245" lon="4.63519">
        <ele>669</ele>
        <time>2010-01-01T00:24:36Z</time>
      </trkpt>
      <trkpt lat="45.75242" lon="4.63502">
        <ele>673</ele>
        <time>2010-01-01T00:24:41Z</time>
      </trkpt>
      <trkpt lat="45.75243" lon="4.63486">
        <ele>674</ele>
        <time>2010-01-01T00:24:46Z</time>
      </trkpt>
      <trkpt lat="45.75243" lon="4.63465">
        <ele>672</ele>
        <time>2010-01-01T00:24:51Z</time>
      </trkpt>
      <trkpt lat="45.75248" lon="4.63436">
        <ele>675</ele>
        <time>2010-01-01T00:25:00Z</time>
      </trkpt>
      <trkpt lat="45.7525" lon="4.63423">
        <ele>680</ele>
        <time>2010-01-01T00:25:03Z</time>
      </trkpt>
      <trkpt lat="45.75251" lon="4.634">
        <ele>687</ele>
        <time>2010-01-01T00:25:10Z</time>
      </trkpt>
      <trkpt lat="45.75264" lon="4.63373">
        <ele>689</ele>
        <time>2010-01-01T00:25:19Z</time>
      </trkpt>
      <trkpt lat="45.75273" lon="4.63351">
        <ele>690</ele>
        <time>2010-01-01T00:25:26Z</time>
      </trkpt>
      <trkpt lat="45.75283" lon="4.63332">
        <ele>690</ele>
        <time>2010-01-01T00:25:33Z</time>
      </trkpt>
      <trkpt lat="45.75305" lon="4.63291">
        <ele>691</ele>
        <time>2010-01-01T00:25:47Z</time>
      </trkpt>
      <trkpt lat="45.75316" lon="4.63267">
        <ele>693</ele>
        <time>2010-01-01T00:25:55Z</time>
      </trkpt>
      <trkpt lat="45.75325" lon="4.63249">
        <ele>694</ele>
        <time>2010-01-01T00:26:01Z</time>
      </trkpt>
      <trkpt lat="45.75344" lon="4.63217">
        <ele>699</ele>
        <time>2010-01-01T00:26:13Z</time>
      </trkpt>
      <trkpt lat="45.75357" lon="4.63202">
        <ele>699</ele>
        <time>2010-01-01T00:26:20Z</time>
      </trkpt>
      <trkpt lat="45.75378" lon="4.63163">
        <ele>696</ele>
        <time>2010-01-01T00:26:33Z</time>
      </trkpt>
      <trkpt lat="45.75399" lon="4.63127">
        <ele>697</ele>
        <time>2010-01-01T00:26:46Z</time>
      </trkpt>
      <trkpt lat="45.75419" lon="4.63074">
        <ele>699</ele>
        <time>2010-01-01T00:27:03Z</time>
      </trkpt>
      <trkpt lat="45.75446" lon="4.62992">
        <ele>696</ele>
        <time>2010-01-01T00:27:29Z</time>
      </trkpt>
      <trkpt lat="45.75473" lon="4.62914">
        <ele>693</ele>
        <time>2010-01-01T00:27:53Z</time>
      </trkpt>
      <trkpt lat="45.75489" lon="4.62866">
        <ele>694</ele>
        <time>2010-01-01T00:28:08Z</time>
      </trkpt>
      <trkpt lat="45.7551" lon="4.6281">
        <ele>701</ele>
        <time>2010-01-01T00:28:26Z</time>
      </trkpt>
      <trkpt lat="45.75531" lon="4.62727">
        <ele>703</ele>
        <time>2010-01-01T00:28:50Z</time>
      </trkpt>
      <trkpt lat="45.75547" lon="4.62688">
        <ele>705</ele>
        <time>2010-01-01T00:29:03Z</time>
      </trkpt>
      <trkpt lat="45.75552" lon="4.62672">
        <ele>706</ele>
        <time>2010-01-01T00:29:08Z</time>
      </trkpt>
      <trkpt lat="45.75561" lon="4.62649">
        <ele>706</ele>
        <time>2010-01-01T00:29:15Z</time>
      </trkpt>
      <trkpt lat="45.75575" lon="4.62626">
        <ele>707</ele>
        <time>2010-01-01T00:29:24Z</time>
      </trkpt>
      <trkpt lat="45.75584" lon="4.62615">
        <ele>726</ele>
        <time>2010-01-01T00:29:28Z</time>
      </trkpt>
      <trkpt lat="45.75591" lon="4.62596">
        <ele>723</ele>
        <time>2010-01-01T00:29:34Z</time>
      </trkpt>
      <trkpt lat="45.75594" lon="4.62584">
        <ele>721</ele>
        <time>2010-01-01T00:29:38Z</time>
      </trkpt>
      <trkpt lat="45.75595" lon="4.62572">
        <ele>724</ele>
        <time>2010-01-01T00:29:41Z</time>
      </trkpt>
      <trkpt lat="45.75596" lon="4.62549">
        <ele>728</ele>
        <time>2010-01-01T00:29:48Z</time>
      </trkpt>
      <trkpt lat="45.75597" lon="4.62525">
        <ele>728</ele>
        <time>2010-01-01T00:29:55Z</time>
      </trkpt>
      <trkpt lat="45.75601" lon="4.62505">
        <ele>726</ele>
        <time>2010-01-01T00:30:00Z</time>
      </trkpt>
      <trkpt lat="45.756" lon="4.62486">
        <ele>729</ele>
        <time>2010-01-01T00:30:06Z</time>
      </trkpt>
      <trkpt lat="45.75599" lon="4.6247">
        <ele>731</ele>
        <time>2010-01-01T00:30:10Z</time>
      </trkpt>
      <trkpt lat="45.756" lon="4.6245">
        <ele>732</ele>
        <time>2010-01-01T00:30:16Z</time>
      </trkpt>
      <trkpt lat="45.75603" lon="4.62423">
        <ele>731</ele>
        <time>2010-01-01T00:30:23Z</time>
      </trkpt>
      <trkpt lat="45.75604" lon="4.6239">
        <ele>736</ele>
        <time>2010-01-01T00:30:33Z</time>
      </trkpt>
      <trkpt lat="45.75604" lon="4.62341">
        <ele>736</ele>
        <time>2010-01-01T00:30:46Z</time>
      </trkpt>
      <trkpt lat="45.75597" lon="4.62295">
        <ele>741</ele>
        <time>2010-01-01T00:31:00Z</time>
      </trkpt>
      <trkpt lat="45.7559" lon="4.62265">
        <ele>740</ele>
        <time>2010-01-01T00:31:08Z</time>
      </trkpt>
      <trkpt lat="45.7559" lon="4.62234">
        <ele>743</ele>
        <time>2010-01-01T00:31:17Z</time>
      </trkpt>
      <trkpt lat="45.7559" lon="4.62218">
        <ele>746</ele>
        <time>2010-01-01T00:31:21Z</time>
      </trkpt>
      <trkpt lat="45.75591" lon="4.622">
        <ele>747</ele>
        <time>2010-01-01T00:31:26Z</time>
      </trkpt>
      <trkpt lat="45.75591" lon="4.62168">
        <ele>745</ele>
        <time>2010-01-01T00:31:35Z</time>
      </trkpt>
      <trkpt lat="45.75592" lon="4.62149">
        <ele>749</ele>
        <time>2010-01-01T00:31:41Z</time>
      </trkpt>
      <trkpt lat="45.75593" lon="4.6213">
        <ele>751</ele>
        <time>2010-01-01T00:31:46Z</time>
      </trkpt>
      <trkpt lat="45.75596" lon="4.62102">
        <ele>750</ele>
        <time>2010-01-01T00:31:54Z</time>
      </trkpt>
      <trkpt lat="45.75599" lon="4.62083">
        <ele>750</ele>
        <time>2010-01-01T00:31:59Z</time>
      </trkpt>
      <trkpt lat="45.756" lon="4.62047">
        <ele>755</ele>
        <time>2010-01-01T00:32:09Z</time>
      </trkpt>
      <trkpt lat="45.756" lon="4.6202">
        <ele>754</ele>
        <time>2010-01-01T00:32:17Z</time>
      </trkpt>
      <trkpt lat="45.75596" lon="4.61974">
        <ele>756</ele>
        <time>2010-01-01T00:32:30Z</time>
      </trkpt>
      <trkpt lat="45.75595" lon="4.61956">
        <ele>757</ele>
        <time>2010-01-01T00:32:35Z</time>
      </trkpt>
      <trkpt lat="45.75596" lon="4.61917">
        <ele>755</ele>
        <time>2010-01-01T00:32:46Z</time>
      </trkpt>
      <trkpt lat="45.75595" lon="4.61882">
        <ele>756</ele>
        <time>2010-01-01T00:32:56Z</time>
      </trkpt>
      <trkpt lat="45.75592" lon="4.61858">
        <ele>755</ele>
        <time>2010-01-01T00:33:02Z</time>
      </trkpt>
      <trkpt lat="45.756" lon="4.61825">
        <ele>755</ele>
        <time>2010-01-01T00:33:12Z</time>
      </trkpt>
      <trkpt lat="45.75608" lon="4.61797">
        <ele>756</ele>
        <time>2010-01-01T00:33:21Z</time>
      </trkpt>
      <trkpt lat="45.75601" lon="4.61799">
        <ele>756</ele>
        <time>2010-01-01T00:33:23Z</time>
      </trkpt>
      <trkpt lat="45.75587" lon="4.61784">
        <ele>757</ele>
        <time>2010-01-01T00:33:31Z</time>
      </trkpt>
      <trkpt lat="45.75573" lon="4.61763">
        <ele>756</ele>
        <time>2010-01-01T00:33:39Z</time>
      </trkpt>
      <trkpt lat="45.75564" lon="4.61747">
        <ele>762</ele>
        <time>2010-01-01T00:33:45Z</time>
      </trkpt>
      <trkpt lat="45.75555" lon="4.61733">
        <ele>762</ele>
        <time>2010-01-01T00:33:50Z</time>
      </trkpt>
      <trkpt lat="45.75545" lon="4.61714">
        <ele>762</ele>
        <time>2010-01-01T00:33:56Z</time>
      </trkpt>
      <trkpt lat="45.75534" lon="4.61698">
        <ele>763</ele>
        <time>2010-01-01T00:34:03Z</time>
      </trkpt>
      <trkpt lat="45.75522" lon="4.61687">
        <ele>764</ele>
        <time>2010-01-01T00:34:08Z</time>
      </trkpt>
      <trkpt lat="45.75516" lon="4.61679">
        <ele>765</ele>
        <time>2010-01-01T00:34:12Z</time>
      </trkpt>
      <trkpt lat="45.75507" lon="4.61673">
        <ele>767</ele>
        <time>2010-01-01T00:34:15Z</time>
      </trkpt>
      <trkpt lat="45.7549" lon="4.6166">
        <ele>771</ele>
        <time>2010-01-01T00:34:23Z</time>
      </trkpt>
      <trkpt lat="45.75471" lon="4.61652">
        <ele>773</ele>
        <time>2010-01-01T00:34:31Z</time>
      </trkpt>
      <trkpt lat="45.75457" lon="4.61648">
        <ele>773</ele>
        <time>2010-01-01T00:34:37Z</time>
      </trkpt>
      <trkpt lat="45.75444" lon="4.61645">
        <ele>773</ele>
        <time>2010-01-01T00:34:42Z</time>
      </trkpt>
      <trkpt lat="45.75411" lon="4.6163">
        <ele>776</ele>
        <time>2010-01-01T00:34:56Z</time>
      </trkpt>
      <trkpt lat="45.75394" lon="4.61621">
        <ele>777</ele>
        <time>2010-01-01T00:35:03Z</time>
      </trkpt>
      <trkpt lat="45.75355" lon="4.61601">
        <ele>778</ele>
        <time>2010-01-01T00:35:20Z</time>
      </trkpt>
      <trkpt lat="45.75324" lon="4.61595">
        <ele>779</ele>
        <time>2010-01-01T00:35:32Z</time>
      </trkpt>
      <trkpt lat="45.7532" lon="4.61585">
        <ele>779</ele>
        <time>2010-01-01T00:35:35Z</time>
      </trkpt>
      <trkpt lat="45.7531" lon="4.61567">
        <ele>781</ele>
        <time>2010-01-01T00:35:42Z</time>
      </trkpt>
      <trkpt lat="45.75301" lon="4.61474">
        <ele>782</ele>
        <time>2010-01-01T00:36:08Z</time>
      </trkpt>
      <trkpt lat="45.75297" lon="4.61399">
        <ele>778</ele>
        <time>2010-01-01T00:36:29Z</time>
      </trkpt>
      <trkpt lat="45.75282" lon="4.61317">
        <ele>770</ele>
        <time>2010-01-01T00:36:53Z</time>
      </trkpt>
      <trkpt lat="45.75265" lon="4.61219">
        <ele>762</ele>
        <time>2010-01-01T00:37:21Z</time>
      </trkpt>
      <trkpt lat="45.75242" lon="4.61172">
        <ele>759</ele>
        <time>2010-01-01T00:37:37Z</time>
      </trkpt>
      <trkpt lat="45.75207" lon="4.61128">
        <ele>756</ele>
        <time>2010-01-01T00:37:56Z</time>
      </trkpt>
      <trkpt lat="45.75175" lon="4.61064">
        <ele>752</ele>
        <time>2010-01-01T00:38:18Z</time>
      </trkpt>
      <trkpt lat="45.75154" lon="4.61045">
        <ele>753</ele>
        <time>2010-01-01T00:38:27Z</time>
      </trkpt>
      <trkpt lat="45.75093" lon="4.6104">
        <ele>753</ele>
        <time>2010-01-01T00:38:52Z</time>
      </trkpt>
      <trkpt lat="45.75021" lon="4.61039">
        <ele>753</ele>
        <time>2010-01-01T00:39:21Z</time>
      </trkpt>
      <trkpt lat="45.74969" lon="4.6107">
        <ele>751</ele>
        <time>2010-01-01T00:39:43Z</time>
      </trkpt>
      <trkpt lat="45.74929" lon="4.61092">
        <ele>748</ele>
        <time>2010-01-01T00:40:00Z</time>
      </trkpt>
      <trkpt lat="45.74891" lon="4.61097">
        <ele>743</ele>
        <time>2010-01-01T00:40:16Z</time>
      </trkpt>
      <trkpt lat="45.74845" lon="4.61102">
        <ele>739</ele>
        <time>2010-01-01T00:40:34Z</time>
      </trkpt>
      <trkpt lat="45.74844" lon="4.61104">
        <ele>739</ele>
        <time>2010-01-01T00:40:35Z</time>
      </trkpt>
      <trkpt lat="45.74807" lon="4.61134">
        <ele>736</ele>
        <time>2010-01-01T00:40:52Z</time>
      </trkpt>
      <trkpt lat="45.74778" lon="4.61154">
        <ele>736</ele>
        <time>2010-01-01T00:41:05Z</time>
      </trkpt>
      <trkpt lat="45.74763" lon="4.61144">
        <ele>736</ele>
        <time>2010-01-01T00:41:11Z</time>
      </trkpt>
      <trkpt lat="45.74741" lon="4.61134">
        <ele>739</ele>
        <time>2010-01-01T00:41:21Z</time>
      </trkpt>
      <trkpt lat="45.74726" lon="4.61136">
        <ele>740</ele>
        <time>2010-01-01T00:41:27Z</time>
      </trkpt>
      <trkpt lat="45.74715" lon="4.61138">
        <ele>741</ele>
        <time>2010-01-01T00:41:31Z</time>
      </trkpt>
      <trkpt lat="45.74708" lon="4.61136">
        <ele>741</ele>
        <time>2010-01-01T00:41:34Z</time>
      </trkpt>
      <trkpt lat="45.74699" lon="4.61142">
        <ele>743</ele>
        <time>2010-01-01T00:41:38Z</time>
      </trkpt>
      <trkpt lat="45.74675" lon="4.61136">
        <ele>745</ele>
        <time>2010-01-01T00:41:48Z</time>
      </trkpt>
      <trkpt lat="45.74662" lon="4.61137">
        <ele>754</ele>
        <time>2010-01-01T00:41:53Z</time>
      </trkpt>
      <trkpt lat="45.74645" lon="4.6114">
        <ele>755</ele>
        <time>2010-01-01T00:42:00Z</time>
      </trkpt>
      <trkpt lat="45.74634" lon="4.61142">
        <ele>756</ele>
        <time>2010-01-01T00:42:04Z</time>
      </trkpt>
      <trkpt lat="45.74628" lon="4.61144">
        <ele>756</ele>
        <time>2010-01-01T00:42:07Z</time>
      </trkpt>
      <trkpt lat="45.74622" lon="4.61148">
        <ele>757</ele>
        <time>2010-01-01T00:42:09Z</time>
      </trkpt>
      <trkpt lat="45.74621" lon="4.61152">
        <ele>757</ele>
        <time>2010-01-01T00:42:10Z</time>
      </trkpt>
      <trkpt lat="45.7462" lon="4.61157">
        <ele>758</ele>
        <time>2010-01-01T00:42:12Z</time>
      </trkpt>
      <trkpt lat="45.74615" lon="4.61163">
        <ele>759</ele>
        <time>2010-01-01T00:42:15Z</time>
      </trkpt>
      <trkpt lat="45.74603" lon="4.61169">
        <ele>764</ele>
        <time>2010-01-01T00:42:19Z</time>
      </trkpt>
      <trkpt lat="45.74599" lon="4.61172">
        <ele>765</ele>
        <time>2010-01-01T00:42:21Z</time>
      </trkpt>
      <trkpt lat="45.74593" lon="4.61178">
        <ele>765</ele>
        <time>2010-01-01T00:42:24Z</time>
      </trkpt>
      <trkpt lat="45.74585" lon="4.61183">
        <ele>765</ele>
        <time>2010-01-01T00:42:28Z</time>
      </trkpt>
      <trkpt lat="45.74577" lon="4.61187">
        <ele>771</ele>
        <time>2010-01-01T00:42:31Z</time>
      </trkpt>
      <trkpt lat="45.74569" lon="4.6119">
        <ele>772</ele>
        <time>2010-01-01T00:42:34Z</time>
      </trkpt>
      <trkpt lat="45.74566" lon="4.6119">
        <ele>772</ele>
        <time>2010-01-01T00:42:36Z</time>
      </trkpt>
      <trkpt lat="45.7456" lon="4.61193">
        <ele>773</ele>
        <time>2010-01-01T00:42:38Z</time>
      </trkpt>
      <trkpt lat="45.7455" lon="4.61191">
        <ele>774</ele>
        <time>2010-01-01T00:42:42Z</time>
      </trkpt>
      <trkpt lat="45.74542" lon="4.61188">
        <ele>774</ele>
        <time>2010-01-01T00:42:46Z</time>
      </trkpt>
      <trkpt lat="45.74527" lon="4.61183">
        <ele>776</ele>
        <time>2010-01-01T00:42:52Z</time>
      </trkpt>
      <trkpt lat="45.74513" lon="4.61176">
        <ele>778</ele>
        <time>2010-01-01T00:42:58Z</time>
      </trkpt>
      <trkpt lat="45.74504" lon="4.61172">
        <ele>780</ele>
        <time>2010-01-01T00:43:02Z</time>
      </trkpt>
      <trkpt lat="45.74502" lon="4.61173">
        <ele>780</ele>
        <time>2010-01-01T00:43:02Z</time>
      </trkpt>
      <trkpt lat="45.74497" lon="4.61168">
        <ele>782</ele>
        <time>2010-01-01T00:43:05Z</time>
      </trkpt>
      <trkpt lat="45.74492" lon="4.61165">
        <ele>783</ele>
        <time>2010-01-01T00:43:07Z</time>
      </trkpt>
      <trkpt lat="45.74482" lon="4.61158">
        <ele>784</ele>
        <time>2010-01-01T00:43:11Z</time>
      </trkpt>
      <trkpt lat="45.74482" lon="4.61153">
        <ele>784</ele>
        <time>2010-01-01T00:43:13Z</time>
      </trkpt>
      <trkpt lat="45.74474" lon="4.61148">
        <ele>784</ele>
        <time>2010-01-01T00:43:16Z</time>
      </trkpt>
      <trkpt lat="45.74459" lon="4.61136">
        <ele>785</ele>
        <time>2010-01-01T00:43:23Z</time>
      </trkpt>
      <trkpt lat="45.74416" lon="4.61094">
        <ele>790</ele>
        <time>2010-01-01T00:43:44Z</time>
      </trkpt>
      <trkpt lat="45.74396" lon="4.61085">
        <ele>790</ele>
        <time>2010-01-01T00:43:52Z</time>
      </trkpt>
      <trkpt lat="45.74347" lon="4.61108">
        <ele>790</ele>
        <time>2010-01-01T00:44:13Z</time>
      </trkpt>
      <trkpt lat="45.74314" lon="4.6113">
        <ele>788</ele>
        <time>2010-01-01T00:44:27Z</time>
      </trkpt>
      <trkpt lat="45.74279" lon="4.61157">
        <ele>787</ele>
        <time>2010-01-01T00:44:43Z</time>
      </trkpt>
      <trkpt lat="45.74262" lon="4.61181">
        <ele>780</ele>
        <time>2010-01-01T00:44:53Z</time>
      </trkpt>
      <trkpt lat="45.74248" lon="4.61204">
        <ele>780</ele>
        <time>2010-01-01T00:45:01Z</time>
      </trkpt>
      <trkpt lat="45.74247" lon="4.6121">
        <ele>779</ele>
        <time>2010-01-01T00:45:03Z</time>
      </trkpt>
      <trkpt lat="45.74244" lon="4.6121">
        <ele>779</ele>
        <time>2010-01-01T00:45:04Z</time>
      </trkpt>
      <trkpt lat="45.74244" lon="4.61196">
        <ele>781</ele>
        <time>2010-01-01T00:45:08Z</time>
      </trkpt>
      <trkpt lat="45.74244" lon="4.61183">
        <ele>782</ele>
        <time>2010-01-01T00:45:12Z</time>
      </trkpt>
      <trkpt lat="45.74246" lon="4.61164">
        <ele>786</ele>
        <time>2010-01-01T00:45:17Z</time>
      </trkpt>
      <trkpt lat="45.74243" lon="4.6115">
        <ele>790</ele>
        <time>2010-01-01T00:45:21Z</time>
      </trkpt>
      <trkpt lat="45.74245" lon="4.61135">
        <ele>793</ele>
        <time>2010-01-01T00:45:25Z</time>
      </trkpt>
      <trkpt lat="45.74251" lon="4.61122">
        <ele>790</ele>
        <time>2010-01-01T00:45:30Z</time>
      </trkpt>
      <trkpt lat="45.74269" lon="4.6109">
        <ele>792</ele>
        <time>2010-01-01T00:45:42Z</time>
      </trkpt>
      <trkpt lat="45.74275" lon="4.61072">
        <ele>798</ele>
        <time>2010-01-01T00:45:47Z</time>
      </trkpt>
      <trkpt lat="45.74282" lon="4.61055">
        <ele>798</ele>
        <time>2010-01-01T00:45:52Z</time>
      </trkpt>
      <trkpt lat="45.743" lon="4.61047">
        <ele>798</ele>
        <time>2010-01-01T00:46:00Z</time>
      </trkpt>
      <trkpt lat="45.74341" lon="4.6103">
        <ele>795</ele>
        <time>2010-01-01T00:46:17Z</time>
      </trkpt>
      <trkpt lat="45.7434" lon="4.61002">
        <ele>799</ele>
        <time>2010-01-01T00:46:25Z</time>
      </trkpt>
      <trkpt lat="45.74335" lon="4.60977">
        <ele>797</ele>
        <time>2010-01-01T00:46:32Z</time>
      </trkpt>
      <trkpt lat="45.74327" lon="4.60959">
        <ele>806</ele>
        <time>2010-01-01T00:46:38Z</time>
      </trkpt>
      <trkpt lat="45.74322" lon="4.60955">
        <ele>806</ele>
        <time>2010-01-01T00:46:41Z</time>
      </trkpt>
      <trkpt lat="45.74311" lon="4.60945">
        <ele>807</ele>
        <time>2010-01-01T00:46:46Z</time>
      </trkpt>
      <trkpt lat="45.74301" lon="4.60925">
        <ele>808</ele>
        <time>2010-01-01T00:46:52Z</time>
      </trkpt>
      <trkpt lat="45.74298" lon="4.60913">
        <ele>811</ele>
        <time>2010-01-01T00:46:56Z</time>
      </trkpt>
      <trkpt lat="45.74298" lon="4.60898">
        <ele>811</ele>
        <time>2010-01-01T00:47:00Z</time>
      </trkpt>
      <trkpt lat="45.74301" lon="4.60828">
        <ele>806</ele>
        <time>2010-01-01T00:47:20Z</time>
      </trkpt>
      <trkpt lat="45.74291" lon="4.6076">
        <ele>805</ele>
        <time>2010-01-01T00:47:39Z</time>
      </trkpt>
      <trkpt lat="45.74274" lon="4.60721">
        <ele>800</ele>
        <time>2010-01-01T00:47:52Z</time>
      </trkpt>
      <trkpt lat="45.74264" lon="4.60717">
        <ele>801</ele>
        <time>2010-01-01T00:47:56Z</time>
      </trkpt>
      <trkpt lat="45.7425" lon="4.60714">
        <ele>802</ele>
        <time>2010-01-01T00:48:02Z</time>
      </trkpt>
      <trkpt lat="45.7424" lon="4.60714">
        <ele>818</ele>
        <time>2010-01-01T00:48:06Z</time>
      </trkpt>
      <trkpt lat="45.74233" lon="4.60721">
        <ele>819</ele>
        <time>2010-01-01T00:48:10Z</time>
      </trkpt>
      <trkpt lat="45.74228" lon="4.60726">
        <ele>819</ele>
        <time>2010-01-01T00:48:12Z</time>
      </trkpt>
      <trkpt lat="45.7422" lon="4.60725">
        <ele>821</ele>
        <time>2010-01-01T00:48:15Z</time>
      </trkpt>
      <trkpt lat="45.74213" lon="4.60723">
        <ele>822</ele>
        <time>2010-01-01T00:48:18Z</time>
      </trkpt>
      <trkpt lat="45.742" lon="4.60712">
        <ele>823</ele>
        <time>2010-01-01T00:48:24Z</time>
      </trkpt>
      <trkpt lat="45.74189" lon="4.60704">
        <ele>824</ele>
        <time>2010-01-01T00:48:29Z</time>
      </trkpt>
      <trkpt lat="45.74179" lon="4.60679">
        <ele>826</ele>
        <time>2010-01-01T00:48:37Z</time>
      </trkpt>
      <trkpt lat="45.74147" lon="4.60637">
        <ele>832</ele>
        <time>2010-01-01T00:48:54Z</time>
      </trkpt>
      <trkpt lat="45.74085" lon="4.60553">
        <ele>829</ele>
        <time>2010-01-01T00:49:28Z</time>
      </trkpt>
      <trkpt lat="45.7407" lon="4.60453">
        <ele>835</ele>
        <time>2010-01-01T00:49:57Z</time>
      </trkpt>
      <trkpt lat="45.74067" lon="4.60414">
        <ele>832</ele>
        <time>2010-01-01T00:50:08Z</time>
      </trkpt>
      <trkpt lat="45.7401" lon="4.6035">
        <ele>838</ele>
        <time>2010-01-01T00:50:37Z</time>
      </trkpt>
      <trkpt lat="45.73937" lon="4.60305">
        <ele>839</ele>
        <time>2010-01-01T00:51:09Z</time>
      </trkpt>
      <trkpt lat="45.73909" lon="4.60283">
        <ele>835</ele>
        <time>2010-01-01T00:51:21Z</time>
      </trkpt>
      <trkpt lat="45.73857" lon="4.60255">
        <ele>831</ele>
        <time>2010-01-01T00:51:44Z</time>
      </trkpt>
      <trkpt lat="45.73782" lon="4.60181">
        <ele>826</ele>
        <time>2010-01-01T00:52:20Z</time>
      </trkpt>
      <trkpt lat="45.73721" lon="4.60113">
        <ele>822</ele>
        <time>2010-01-01T00:52:51Z</time>
      </trkpt>
      <trkpt lat="45.73684" lon="4.6008">
        <ele>817</ele>
        <time>2010-01-01T00:53:08Z</time>
      </trkpt>
      <trkpt lat="45.73635" lon="4.60045">
        <ele>824</ele>
        <time>2010-01-01T00:53:31Z</time>
      </trkpt>
      <trkpt lat="45.73596" lon="4.60016">
        <ele>825</ele>
        <time>2010-01-01T00:53:48Z</time>
      </trkpt>
      <trkpt lat="45.73573" lon="4.59997">
        <ele>826</ele>
        <time>2010-01-01T00:53:59Z</time>
      </trkpt>
      <trkpt lat="45.73548" lon="4.59975">
        <ele>828</ele>
        <time>2010-01-01T00:54:10Z</time>
      </trkpt>
      <trkpt lat="45.73499" lon="4.59932">
        <ele>839</ele>
        <time>2010-01-01T00:54:33Z</time>
      </trkpt>
      <trkpt lat="45.73476" lon="4.59907">
        <ele>832</ele>
        <time>2010-01-01T00:54:45Z</time>
      </trkpt>
      <trkpt lat="45.73445" lon="4.59872">
        <ele>833</ele>
        <time>2010-01-01T00:55:01Z</time>
      </trkpt>
      <trkpt lat="45.73421" lon="4.59844">
        <ele>835</ele>
        <time>2010-01-01T00:55:13Z</time>
      </trkpt>
      <trkpt lat="45.73394" lon="4.5982">
        <ele>835</ele>
        <time>2010-01-01T00:55:26Z</time>
      </trkpt>
      <trkpt lat="45.73376" lon="4.59808">
        <ele>835</ele>
        <time>2010-01-01T00:55:34Z</time>
      </trkpt>
      <trkpt lat="45.73349" lon="4.59804">
        <ele>836</ele>
        <time>2010-01-01T00:55:45Z</time>
      </trkpt>
      <trkpt lat="45.73316" lon="4.59823">
        <ele>837</ele>
        <time>2010-01-01T00:55:59Z</time>
      </trkpt>
      <trkpt lat="45.73292" lon="4.59841">
        <ele>842</ele>
        <time>2010-01-01T00:56:10Z</time>
      </trkpt>
      <trkpt lat="45.73236" lon="4.59881">
        <ele>836</ele>
        <time>2010-01-01T00:56:35Z</time>
      </trkpt>
      <trkpt lat="45.73127" lon="4.59906">
        <ele>831</ele>
        <time>2010-01-01T00:57:19Z</time>
      </trkpt>
      <trkpt lat="45.73088" lon="4.59924">
        <ele>832</ele>
        <time>2010-01-01T00:57:36Z</time>
      </trkpt>
      <trkpt lat="45.7305" lon="4.59943">
        <ele>834</ele>
        <time>2010-01-01T00:57:51Z</time>
      </trkpt>
      <trkpt lat="45.73018" lon="4.59937">
        <ele>837</ele>
        <time>2010-01-01T00:58:05Z</time>
      </trkpt>
      <trkpt lat="45.73015" lon="4.59934">
        <ele>838</ele>
        <time>2010-01-01T00:58:06Z</time>
      </trkpt>
      <trkpt lat="45.73011" lon="4.59925">
        <ele>840</ele>
        <time>2010-01-01T00:58:09Z</time>
      </trkpt>
      <trkpt lat="45.73008" lon="4.59918">
        <ele>842</ele>
        <time>2010-01-01T00:58:11Z</time>
      </trkpt>
      <trkpt lat="45.73007" lon="4.59909">
        <ele>842</ele>
        <time>2010-01-01T00:58:14Z</time>
      </trkpt>
      <trkpt lat="45.73008" lon="4.59903">
        <ele>841</ele>
        <time>2010-01-01T00:58:15Z</time>
      </trkpt>
      <trkpt lat="45.73002" lon="4.59891">
        <ele>840</ele>
        <time>2010-01-01T00:58:19Z</time>
      </trkpt>
      <trkpt lat="45.72994" lon="4.59877">
        <ele>850</ele>
        <time>2010-01-01T00:58:25Z</time>
      </trkpt>
      <trkpt lat="45.72991" lon="4.59866">
        <ele>850</ele>
        <time>2010-01-01T00:58:28Z</time>
      </trkpt>
      <trkpt lat="45.72988" lon="4.59857">
        <ele>850</ele>
        <time>2010-01-01T00:58:31Z</time>
      </trkpt>
      <trkpt lat="45.72974" lon="4.59836">
        <ele>851</ele>
        <time>2010-01-01T00:58:39Z</time>
      </trkpt>
      <trkpt lat="45.72958" lon="4.59803">
        <ele>852</ele>
        <time>2010-01-01T00:58:50Z</time>
      </trkpt>
      <trkpt lat="45.72948" lon="4.59784">
        <ele>853</ele>
        <time>2010-01-01T00:58:57Z</time>
      </trkpt>
      <trkpt lat="45.72935" lon="4.59765">
        <ele>855</ele>
        <time>2010-01-01T00:59:04Z</time>
      </trkpt>
      <trkpt lat="45.72918" lon="4.59744">
        <ele>858</ele>
        <time>2010-01-01T00:59:13Z</time>
      </trkpt>
      <trkpt lat="45.72914" lon="4.59734">
        <ele>864</ele>
        <time>2010-01-01T00:59:16Z</time>
      </trkpt>
      <trkpt lat="45.72902" lon="4.59721">
        <ele>865</ele>
        <time>2010-01-01T00:59:22Z</time>
      </trkpt>
      <trkpt lat="45.72894" lon="4.59715">
        <ele>865</ele>
        <time>2010-01-01T00:59:26Z</time>
      </trkpt>
      <trkpt lat="45.72878" lon="4.59709">
        <ele>867</ele>
        <time>2010-01-01T00:59:32Z</time>
      </trkpt>
      <trkpt lat="45.72862" lon="4.59706">
        <ele>869</ele>
        <time>2010-01-01T00:59:39Z</time>
      </trkpt>
      <trkpt lat="45.72858" lon="4.5971">
        <ele>870</ele>
        <time>2010-01-01T00:59:41Z</time>
      </trkpt>
      <trkpt lat="45.72852" lon="4.59722">
        <ele>871</ele>
        <time>2010-01-01T00:59:45Z</time>
      </trkpt>
      <trkpt lat="45.72846" lon="4.59734">
        <ele>874</ele>
        <time>2010-01-01T00:59:49Z</time>
      </trkpt>
      <trkpt lat="45.72841" lon="4.59744">
        <ele>877</ele>
        <time>2010-01-01T00:59:52Z</time>
      </trkpt>
      <trkpt lat="45.72837" lon="4.59753">
        <ele>880</ele>
        <time>2010-01-01T00:59:55Z</time>
      </trkpt>
      <trkpt lat="45.72834" lon="4.59758">
        <ele>880</ele>
        <time>2010-01-01T00:59:57Z</time>
      </trkpt>
      <trkpt lat="45.7283" lon="4.59763">
        <ele>882</ele>
        <time>2010-01-01T00:59:59Z</time>
      </trkpt>
      <trkpt lat="45.72824" lon="4.5977">
        <ele>882</ele>
        <time>2010-01-01T01:00:02Z</time>
      </trkpt>
      <trkpt lat="45.72811" lon="4.59776">
        <ele>882</ele>
        <time>2010-01-01T01:00:08Z</time>
      </trkpt>
      <trkpt lat="45.72804" lon="4.59773">
        <ele>882</ele>
        <time>2010-01-01T01:00:11Z</time>
      </trkpt>
      <trkpt lat="45.72787" lon="4.59765">
        <ele>883</ele>
        <time>2010-01-01T01:00:18Z</time>
      </trkpt>
      <trkpt lat="45.72777" lon="4.59759">
        <ele>884</ele>
        <time>2010-01-01T01:00:22Z</time>
      </trkpt>
      <trkpt lat="45.72765" lon="4.59753">
        <ele>885</ele>
        <time>2010-01-01T01:00:27Z</time>
      </trkpt>
      <trkpt lat="45.72765" lon="4.59754">
        <ele>885</ele>
        <time>2010-01-01T01:00:28Z</time>
      </trkpt>
      <trkpt lat="45.72766" lon="4.59755">
        <ele>885</ele>
        <time>2010-01-01T01:00:28Z</time>
      </trkpt>
      <trkpt lat="45.72765" lon="4.59756">
        <ele>885</ele>
        <time>2010-01-01T01:00:28Z</time>
      </trkpt>
      <trkpt lat="45.72765" lon="4.59756">
        <ele>885</ele>
        <time>2010-01-01T01:00:28Z</time>
      </trkpt>
      <trkpt lat="45.72765" lon="4.59756">
        <ele>885</ele>
        <time>2010-01-01T01:00:28Z</time>
      </trkpt>
      <trkpt lat="45.72759" lon="4.59733">
        <ele>885</ele>
        <time>2010-01-01T01:00:35Z</time>
      </trkpt>
      <trkpt lat="45.72748" lon="4.59709">
        <ele>885</ele>
        <time>2010-01-01T01:00:43Z</time>
      </trkpt>
      <trkpt lat="45.72726" lon="4.59682">
        <ele>884</ele>
        <time>2010-01-01T01:00:55Z</time>
      </trkpt>
      <trkpt lat="45.72694" lon="4.59637">
        <ele>882</ele>
        <time>2010-01-01T01:01:13Z</time>
      </trkpt>
      <trkpt lat="45.72674" lon="4.59596">
        <ele>882</ele>
        <time>2010-01-01T01:01:27Z</time>
      </trkpt>
      <trkpt lat="45.72656" lon="4.59568">
        <ele>877</ele>
        <time>2010-01-01T01:01:37Z</time>
      </trkpt>
      <trkpt lat="45.72644" lon="4.59539">
        <ele>873</ele>
        <time>2010-01-01T01:01:47Z</time>
      </trkpt>
      <trkpt lat="45.72639" lon="4.59533">
        <ele>873</ele>
        <time>2010-01-01T01:01:49Z</time>
      </trkpt>
      <trkpt lat="45.72634" lon="4.59514">
        <ele>872</ele>
        <time>2010-01-01T01:01:55Z</time>
      </trkpt>
      <trkpt lat="45.72618" lon="4.59468">
        <ele>863</ele>
        <time>2010-01-01T01:02:10Z</time>
      </trkpt>
      <trkpt lat="45.72623" lon="4.59443">
        <ele>861</ele>
        <time>2010-01-01T01:02:17Z</time>
      </trkpt>
      <trkpt lat="45.72598" lon="4.59422">
        <ele>858</ele>
        <time>2010-01-01T01:02:28Z</time>
      </trkpt>
      <trkpt lat="45.7255" lon="4.59417">
        <ele>852</ele>
        <time>2010-01-01T01:02:48Z</time>
      </trkpt>
      <trkpt lat="45.72504" lon="4.59417">
        <ele>841</ele>
        <time>2010-01-01T01:03:06Z</time>
      </trkpt>
      <trkpt lat="45.72452" lon="4.5943">
        <ele>844</ele>
        <time>2010-01-01T01:03:27Z</time>
      </trkpt>
      <trkpt lat="45.72385" lon="4.59443">
        <ele>841</ele>
        <time>2010-01-01T01:03:54Z</time>
      </trkpt>
      <trkpt lat="45.72368" lon="4.59434">
        <ele>840</ele>
        <time>2010-01-01T01:04:01Z</time>
      </trkpt>
      <trkpt lat="45.72339" lon="4.59392">
        <ele>835</ele>
        <time>2010-01-01T01:04:18Z</time>
      </trkpt>
      <trkpt lat="45.72316" lon="4.59356">
        <ele>831</ele>
        <time>2010-01-01T01:04:31Z</time>
      </trkpt>
      <trkpt lat="45.72277" lon="4.593">
        <ele>829</ele>
        <time>2010-01-01T01:04:53Z</time>
      </trkpt>
      <trkpt lat="45.72251" lon="4.59263">
        <ele>829</ele>
        <time>2010-01-01T01:05:08Z</time>
      </trkpt>
      <trkpt lat="45.72227" lon="4.59221">
        <ele>829</ele>
        <time>2010-01-01T01:05:23Z</time>
      </trkpt>
      <trkpt lat="45.72206" lon="4.59189">
        <ele>830</ele>
        <time>2010-01-01T01:05:36Z</time>
      </trkpt>
      <trkpt lat="45.72189" lon="4.59162">
        <ele>834</ele>
        <time>2010-01-01T01:05:46Z</time>
      </trkpt>
      <trkpt lat="45.72166" lon="4.59131">
        <ele>832</ele>
        <time>2010-01-01T01:05:58Z</time>
      </trkpt>
      <trkpt lat="45.72154" lon="4.59113">
        <ele>833</ele>
        <time>2010-01-01T01:06:06Z</time>
      </trkpt>
      <trkpt lat="45.72096" lon="4.59019">
        <ele>840</ele>
        <time>2010-01-01T01:06:40Z</time>
      </trkpt>
      <trkpt lat="45.72075" lon="4.58992">
        <ele>840</ele>
        <time>2010-01-01T01:06:52Z</time>
      </trkpt>
      <trkpt lat="45.72048" lon="4.58931">
        <ele>840</ele>
        <time>2010-01-01T01:07:12Z</time>
      </trkpt>
      <trkpt lat="45.7204" lon="4.58909">
        <ele>844</ele>
        <time>2010-01-01T01:07:19Z</time>
      </trkpt>
      <trkpt lat="45.71955" lon="4.58784">
        <ele>840</ele>
        <time>2010-01-01T01:08:07Z</time>
      </trkpt>
      <trkpt lat="45.7192" lon="4.58728">
        <ele>837</ele>
        <time>2010-01-01T01:08:29Z</time>
      </trkpt>
      <trkpt lat="45.71881" lon="4.58672">
        <ele>832</ele>
        <time>2010-01-01T01:08:51Z</time>
      </trkpt>
      <trkpt lat="45.71831" lon="4.58614">
        <ele>823</ele>
        <time>2010-01-01T01:09:16Z</time>
      </trkpt>
      <trkpt lat="45.71779" lon="4.58575">
        <ele>819</ele>
        <time>2010-01-01T01:09:40Z</time>
      </trkpt>
      <trkpt lat="45.71732" lon="4.58541">
        <ele>816</ele>
        <time>2010-01-01T01:10:01Z</time>
      </trkpt>
      <trkpt lat="45.71686" lon="4.58499">
        <ele>817</ele>
        <time>2010-01-01T01:10:23Z</time>
      </trkpt>
      <trkpt lat="45.7166" lon="4.58478">
        <ele>823</ele>
        <time>2010-01-01T01:10:35Z</time>
      </trkpt>
      <trkpt lat="45.71642" lon="4.58464">
        <ele>825</ele>
        <time>2010-01-01T01:10:43Z</time>
      </trkpt>
      <trkpt lat="45.7163" lon="4.58456">
        <ele>826</ele>
        <time>2010-01-01T01:10:48Z</time>
      </trkpt>
      <trkpt lat="45.7162" lon="4.58451">
        <ele>827</ele>
        <time>2010-01-01T01:10:53Z</time>
      </trkpt>
      <trkpt lat="45.71613" lon="4.5845">
        <ele>828</ele>
        <time>2010-01-01T01:10:55Z</time>
      </trkpt>
      <trkpt lat="45.7161" lon="4.58444">
        <ele>828</ele>
        <time>2010-01-01T01:10:57Z</time>
      </trkpt>
      <trkpt lat="45.71608" lon="4.58436">
        <ele>829</ele>
        <time>2010-01-01T01:11:00Z</time>
      </trkpt>
      <trkpt lat="45.71602" lon="4.58427">
        <ele>830</ele>
        <time>2010-01-01T01:11:03Z</time>
      </trkpt>
      <trkpt lat="45.71587" lon="4.58409">
        <ele>831</ele>
        <time>2010-01-01T01:11:11Z</time>
      </trkpt>
      <trkpt lat="45.7158" lon="4.58399">
        <ele>837</ele>
        <time>2010-01-01T01:11:15Z</time>
      </trkpt>
      <trkpt lat="45.71574" lon="4.58394">
        <ele>838</ele>
        <time>2010-01-01T01:11:18Z</time>
      </trkpt>
      <trkpt lat="45.7157" lon="4.5839">
        <ele>838</ele>
        <time>2010-01-01T01:11:20Z</time>
      </trkpt>
      <trkpt lat="45.71559" lon="4.58382">
        <ele>839</ele>
        <time>2010-01-01T01:11:25Z</time>
      </trkpt>
      <trkpt lat="45.71543" lon="4.58376">
        <ele>840</ele>
        <time>2010-01-01T01:11:31Z</time>
      </trkpt>
      <trkpt lat="45.71534" lon="4.58366">
        <ele>841</ele>
        <time>2010-01-01T01:11:36Z</time>
      </trkpt>
      <trkpt lat="45.71523" lon="4.58359">
        <ele>842</ele>
        <time>2010-01-01T01:11:41Z</time>
      </trkpt>
      <trkpt lat="45.71513" lon="4.58353">
        <ele>843</ele>
        <time>2010-01-01T01:11:45Z</time>
      </trkpt>
      <trkpt lat="45.71497" lon="4.5835">
        <ele>849</ele>
        <time>2010-01-01T01:11:51Z</time>
      </trkpt>
      <trkpt lat="45.71482" lon="4.5836">
        <ele>850</ele>
        <time>2010-01-01T01:11:58Z</time>
      </trkpt>
      <trkpt lat="45.71475" lon="4.58374">
        <ele>851</ele>
        <time>2010-01-01T01:12:03Z</time>
      </trkpt>
      <trkpt lat="45.71468" lon="4.58389">
        <ele>851</ele>
        <time>2010-01-01T01:12:08Z</time>
      </trkpt>
      <trkpt lat="45.71433" lon="4.58431">
        <ele>854</ele>
        <time>2010-01-01T01:12:26Z</time>
      </trkpt>
      <trkpt lat="45.71414" lon="4.58461">
        <ele>854</ele>
        <time>2010-01-01T01:12:37Z</time>
      </trkpt>
      <trkpt lat="45.71364" lon="4.58511">
        <ele>853</ele>
        <time>2010-01-01T01:13:02Z</time>
      </trkpt>
      <trkpt lat="45.71324" lon="4.5855">
        <ele>853</ele>
        <time>2010-01-01T01:13:21Z</time>
      </trkpt>
      <trkpt lat="45.71322" lon="4.58553">
        <ele>853</ele>
        <time>2010-01-01T01:13:23Z</time>
      </trkpt>
      <trkpt lat="45.71327" lon="4.58559">
        <ele>853</ele>
        <time>2010-01-01T01:13:25Z</time>
      </trkpt>
      <trkpt lat="45.71323" lon="4.58561">
        <ele>853</ele>
        <time>2010-01-01T01:13:27Z</time>
      </trkpt>
      <trkpt lat="45.71285" lon="4.5861">
        <ele>847</ele>
        <time>2010-01-01T01:13:47Z</time>
      </trkpt>
      <trkpt lat="45.71287" lon="4.58631">
        <ele>847</ele>
        <time>2010-01-01T01:13:53Z</time>
      </trkpt>
      <trkpt lat="45.71289" lon="4.58658">
        <ele>846</ele>
        <time>2010-01-01T01:14:00Z</time>
      </trkpt>
      <trkpt lat="45.71283" lon="4.58675">
        <ele>838</ele>
        <time>2010-01-01T01:14:06Z</time>
      </trkpt>
      <trkpt lat="45.71257" lon="4.58697">
        <ele>836</ele>
        <time>2010-01-01T01:14:18Z</time>
      </trkpt>
      <trkpt lat="45.71229" lon="4.58735">
        <ele>825</ele>
        <time>2010-01-01T01:14:33Z</time>
      </trkpt>
      <trkpt lat="45.71208" lon="4.58786">
        <ele>812</ele>
        <time>2010-01-01T01:14:50Z</time>
      </trkpt>
      <trkpt lat="45.71197" lon="4.58816">
        <ele>809</ele>
        <time>2010-01-01T01:15:00Z</time>
      </trkpt>
      <trkpt lat="45.71163" lon="4.58827">
        <ele>803</ele>
        <time>2010-01-01T01:15:13Z</time>
      </trkpt>
      <trkpt lat="45.71152" lon="4.58845">
        <ele>796</ele>
        <time>2010-01-01T01:15:20Z</time>
      </trkpt>
      <trkpt lat="45.71142" lon="4.58879">
        <ele>789</ele>
        <time>2010-01-01T01:15:30Z</time>
      </trkpt>
      <trkpt lat="45.71096" lon="4.58863">
        <ele>785</ele>
        <time>2010-01-01T01:15:49Z</time>
      </trkpt>
      <trkpt lat="45.71081" lon="4.58882">
        <ele>769</ele>
        <time>2010-01-01T01:15:57Z</time>
      </trkpt>
      <trkpt lat="45.7107" lon="4.58919">
        <ele>764</ele>
        <time>2010-01-01T01:16:08Z</time>
      </trkpt>
      <trkpt lat="45.71078" lon="4.58967">
        <ele>755</ele>
        <time>2010-01-01T01:16:22Z</time>
      </trkpt>
      <trkpt lat="45.71068" lon="4.58955">
        <ele>755</ele>
        <time>2010-01-01T01:16:27Z</time>
      </trkpt>
      <trkpt lat="45.71068" lon="4.58955">
        <ele>755</ele>
        <time>2010-01-01T01:16:27Z</time>
      </trkpt>
      <trkpt lat="45.71069" lon="4.58957">
        <ele>755</ele>
        <time>2010-01-01T01:16:28Z</time>
      </trkpt>
      <trkpt lat="45.71094" lon="4.58972">
        <ele>767</ele>
        <time>2010-01-01T01:16:39Z</time>
      </trkpt>
      <trkpt lat="45.71115" lon="4.58977">
        <ele>768</ele>
        <time>2010-01-01T01:16:47Z</time>
      </trkpt>
      <trkpt lat="45.71132" lon="4.58975">
        <ele>769</ele>
        <time>2010-01-01T01:16:54Z</time>
      </trkpt>
      <trkpt lat="45.71151" lon="4.5897">
        <ele>770</ele>
        <time>2010-01-01T01:17:02Z</time>
      </trkpt>
      <trkpt lat="45.71161" lon="4.58965">
        <ele>771</ele>
        <time>2010-01-01T01:17:06Z</time>
      </trkpt>
      <trkpt lat="45.71212" lon="4.58936">
        <ele>772</ele>
        <time>2010-01-01T01:17:28Z</time>
      </trkpt>
      <trkpt lat="45.71245" lon="4.58922">
        <ele>774</ele>
        <time>2010-01-01T01:17:42Z</time>
      </trkpt>
      <trkpt lat="45.71277" lon="4.58913">
        <ele>782</ele>
        <time>2010-01-01T01:17:55Z</time>
      </trkpt>
      <trkpt lat="45.71346" lon="4.58902">
        <ele>776</ele>
        <time>2010-01-01T01:18:23Z</time>
      </trkpt>
      <trkpt lat="45.71365" lon="4.58896">
        <ele>777</ele>
        <time>2010-01-01T01:18:30Z</time>
      </trkpt>
      <trkpt lat="45.71425" lon="4.58865">
        <ele>772</ele>
        <time>2010-01-01T01:18:56Z</time>
      </trkpt>
      <trkpt lat="45.71481" lon="4.58835">
        <ele>769</ele>
        <time>2010-01-01T01:19:20Z</time>
      </trkpt>
      <trkpt lat="45.71559" lon="4.58784">
        <ele>774</ele>
        <time>2010-01-01T01:19:54Z</time>
      </trkpt>
      <trkpt lat="45.71592" lon="4.58771">
        <ele>777</ele>
        <time>2010-01-01T01:20:08Z</time>
      </trkpt>
      <trkpt lat="45.71624" lon="4.58775">
        <ele>779</ele>
        <time>2010-01-01T01:20:21Z</time>
      </trkpt>
      <trkpt lat="45.71651" lon="4.58804">
        <ele>780</ele>
        <time>2010-01-01T01:20:34Z</time>
      </trkpt>
      <trkpt lat="45.71667" lon="4.58828">
        <ele>787</ele>
        <time>2010-01-01T01:20:43Z</time>
      </trkpt>
      <trkpt lat="45.71675" lon="4.58859">
        <ele>793</ele>
        <time>2010-01-01T01:20:53Z</time>
      </trkpt>
      <trkpt lat="45.71679" lon="4.58887">
        <ele>793</ele>
        <time>2010-01-01T01:21:01Z</time>
      </trkpt>
      <trkpt lat="45.71688" lon="4.58954">
        <ele>793</ele>
        <time>2010-01-01T01:21:20Z</time>
      </trkpt>
      <trkpt lat="45.71693" lon="4.58993">
        <ele>791</ele>
        <time>2010-01-01T01:21:31Z</time>
      </trkpt>
      <trkpt lat="45.71699" lon="4.59073">
        <ele>789</ele>
        <time>2010-01-01T01:21:53Z</time>
      </trkpt>
      <trkpt lat="45.71703" lon="4.59125">
        <ele>785</ele>
        <time>2010-01-01T01:22:08Z</time>
      </trkpt>
      <trkpt lat="45.71705" lon="4.59179">
        <ele>780</ele>
        <time>2010-01-01T01:22:23Z</time>
      </trkpt>
      <trkpt lat="45.71683" lon="4.5924">
        <ele>777</ele>
        <time>2010-01-01T01:22:42Z</time>
      </trkpt>
      <trkpt lat="45.71645" lon="4.59276">
        <ele>769</ele>
        <time>2010-01-01T01:23:00Z</time>
      </trkpt>
      <trkpt lat="45.71632" lon="4.59275">
        <ele>767</ele>
        <time>2010-01-01T01:23:06Z</time>
      </trkpt>
      <trkpt lat="45.716" lon="4.59308">
        <ele>763</ele>
        <time>2010-01-01T01:23:21Z</time>
      </trkpt>
      <trkpt lat="45.71588" lon="4.59356">
        <ele>764</ele>
        <time>2010-01-01T01:23:36Z</time>
      </trkpt>
      <trkpt lat="45.7157" lon="4.59428">
        <ele>753</ele>
        <time>2010-01-01T01:23:57Z</time>
      </trkpt>
      <trkpt lat="45.71555" lon="4.59453">
        <ele>746</ele>
        <time>2010-01-01T01:24:06Z</time>
      </trkpt>
      <trkpt lat="45.7155" lon="4.59403">
        <ele>745</ele>
        <time>2010-01-01T01:24:20Z</time>
      </trkpt>
      <trkpt lat="45.7154" lon="4.59367">
        <ele>742</ele>
        <time>2010-01-01T01:24:31Z</time>
      </trkpt>
      <trkpt lat="45.71524" lon="4.59338">
        <ele>736</ele>
        <time>2010-01-01T01:24:42Z</time>
      </trkpt>
      <trkpt lat="45.71512" lon="4.59246">
        <ele>723</ele>
        <time>2010-01-01T01:25:08Z</time>
      </trkpt>
      <trkpt lat="45.71503" lon="4.59187">
        <ele>722</ele>
        <time>2010-01-01T01:25:24Z</time>
      </trkpt>
      <trkpt lat="45.71502" lon="4.59162">
        <ele>715</ele>
        <time>2010-01-01T01:25:32Z</time>
      </trkpt>
      <trkpt lat="45.71503" lon="4.59143">
        <ele>722</ele>
        <time>2010-01-01T01:25:37Z</time>
      </trkpt>
      <trkpt lat="45.71499" lon="4.59133">
        <ele>712</ele>
        <time>2010-01-01T01:25:40Z</time>
      </trkpt>
      <trkpt lat="45.71472" lon="4.59105">
        <ele>713</ele>
        <time>2010-01-01T01:25:54Z</time>
      </trkpt>
      <trkpt lat="45.71404" lon="4.59079">
        <ele>721</ele>
        <time>2010-01-01T01:26:22Z</time>
      </trkpt>
      <trkpt lat="45.71351" lon="4.59105">
        <ele>704</ele>
        <time>2010-01-01T01:26:44Z</time>
      </trkpt>
      <trkpt lat="45.71306" lon="4.59127">
        <ele>699</ele>
        <time>2010-01-01T01:27:03Z</time>
      </trkpt>
      <trkpt lat="45.71322" lon="4.59125">
        <ele>699</ele>
        <time>2010-01-01T01:27:10Z</time>
      </trkpt>
      <trkpt lat="45.71372" lon="4.59144">
        <ele>697</ele>
        <time>2010-01-01T01:27:30Z</time>
      </trkpt>
      <trkpt lat="45.71416" lon="4.59187">
        <ele>686</ele>
        <time>2010-01-01T01:27:51Z</time>
      </trkpt>
      <trkpt lat="45.71426" lon="4.59244">
        <ele>693</ele>
        <time>2010-01-01T01:28:08Z</time>
      </trkpt>
      <trkpt lat="45.71417" lon="4.59337">
        <ele>688</ele>
        <time>2010-01-01T01:28:34Z</time>
      </trkpt>
      <trkpt lat="45.7142" lon="4.59403">
        <ele>694</ele>
        <time>2010-01-01T01:28:53Z</time>
      </trkpt>
      <trkpt lat="45.71421" lon="4.59452">
        <ele>697</ele>
        <time>2010-01-01T01:29:06Z</time>
      </trkpt>
      <trkpt lat="45.71415" lon="4.59526">
        <ele>672</ele>
        <time>2010-01-01T01:29:27Z</time>
      </trkpt>
      <trkpt lat="45.71415" lon="4.59562">
        <ele>672</ele>
        <time>2010-01-01T01:29:37Z</time>
      </trkpt>
      <trkpt lat="45.71417" lon="4.59625">
        <ele>670</ele>
        <time>2010-01-01T01:29:55Z</time>
      </trkpt>
      <trkpt lat="45.71457" lon="4.59729">
        <ele>686</ele>
        <time>2010-01-01T01:30:28Z</time>
      </trkpt>
      <trkpt lat="45.7151" lon="4.59803">
        <ele>683</ele>
        <time>2010-01-01T01:30:58Z</time>
      </trkpt>
      <trkpt lat="45.71556" lon="4.59797">
        <ele>686</ele>
        <time>2010-01-01T01:31:16Z</time>
      </trkpt>
      <trkpt lat="45.71583" lon="4.59788">
        <ele>687</ele>
        <time>2010-01-01T01:31:27Z</time>
      </trkpt>
      <trkpt lat="45.71607" lon="4.59773">
        <ele>686</ele>
        <time>2010-01-01T01:31:38Z</time>
      </trkpt>
      <trkpt lat="45.7167" lon="4.59732">
        <ele>692</ele>
        <time>2010-01-01T01:32:05Z</time>
      </trkpt>
      <trkpt lat="45.7172" lon="4.59718">
        <ele>695</ele>
        <time>2010-01-01T01:32:26Z</time>
      </trkpt>
      <trkpt lat="45.71777" lon="4.59691">
        <ele>689</ele>
        <time>2010-01-01T01:32:50Z</time>
      </trkpt>
      <trkpt lat="45.71846" lon="4.59669">
        <ele>685</ele>
        <time>2010-01-01T01:33:18Z</time>
      </trkpt>
      <trkpt lat="45.71892" lon="4.59703">
        <ele>686</ele>
        <time>2010-01-01T01:33:39Z</time>
      </trkpt>
      <trkpt lat="45.71903" lon="4.59758">
        <ele>683</ele>
        <time>2010-01-01T01:33:55Z</time>
      </trkpt>
      <trkpt lat="45.71887" lon="4.59929">
        <ele>678</ele>
        <time>2010-01-01T01:34:43Z</time>
      </trkpt>
      <trkpt lat="45.71897" lon="4.60069">
        <ele>676</ele>
        <time>2010-01-01T01:35:23Z</time>
      </trkpt>
      <trkpt lat="45.71949" lon="4.60121">
        <ele>681</ele>
        <time>2010-01-01T01:35:48Z</time>
      </trkpt>
      <trkpt lat="45.71994" lon="4.60123">
        <ele>684</ele>
        <time>2010-01-01T01:36:06Z</time>
      </trkpt>
      <trkpt lat="45.72037" lon="4.60122">
        <ele>692</ele>
        <time>2010-01-01T01:36:23Z</time>
      </trkpt>
      <trkpt lat="45.72058" lon="4.60154">
        <ele>689</ele>
        <time>2010-01-01T01:36:36Z</time>
      </trkpt>
      <trkpt lat="45.72118" lon="4.6027">
        <ele>681</ele>
        <time>2010-01-01T01:37:16Z</time>
      </trkpt>
      <trkpt lat="45.72102" lon="4.60365">
        <ele>676</ele>
        <time>2010-01-01T01:37:43Z</time>
      </trkpt>
      <trkpt lat="45.72114" lon="4.60417">
        <ele>676</ele>
        <time>2010-01-01T01:37:59Z</time>
      </trkpt>
      <trkpt lat="45.7213" lon="4.60449">
        <ele>679</ele>
        <time>2010-01-01T01:38:10Z</time>
      </trkpt>
      <trkpt lat="45.7214" lon="4.60502">
        <ele>677</ele>
        <time>2010-01-01T01:38:25Z</time>
      </trkpt>
      <trkpt lat="45.72148" lon="4.60552">
        <ele>675</ele>
        <time>2010-01-01T01:38:39Z</time>
      </trkpt>
      <trkpt lat="45.72173" lon="4.60605">
        <ele>684</ele>
        <time>2010-01-01T01:38:57Z</time>
      </trkpt>
      <trkpt lat="45.72225" lon="4.6066">
        <ele>686</ele>
        <time>2010-01-01T01:39:23Z</time>
      </trkpt>
      <trkpt lat="45.72265" lon="4.60687">
        <ele>683</ele>
        <time>2010-01-01T01:39:41Z</time>
      </trkpt>
      <trkpt lat="45.72346" lon="4.60732">
        <ele>684</ele>
        <time>2010-01-01T01:40:16Z</time>
      </trkpt>
      <trkpt lat="45.72402" lon="4.60723">
        <ele>688</ele>
        <time>2010-01-01T01:40:38Z</time>
      </trkpt>
      <trkpt lat="45.72443" lon="4.60716">
        <ele>694</ele>
        <time>2010-01-01T01:40:54Z</time>
      </trkpt>
      <trkpt lat="45.7247" lon="4.60782">
        <ele>682</ele>
        <time>2010-01-01T01:41:16Z</time>
      </trkpt>
      <trkpt lat="45.72452" lon="4.60969">
        <ele>675</ele>
        <time>2010-01-01T01:42:08Z</time>
      </trkpt>
      <trkpt lat="45.72437" lon="4.61153">
        <ele>674</ele>
        <time>2010-01-01T01:43:00Z</time>
      </trkpt>
      <trkpt lat="45.72432" lon="4.61243">
        <ele>674</ele>
        <time>2010-01-01T01:43:25Z</time>
      </trkpt>
      <trkpt lat="45.72449" lon="4.61308">
        <ele>671</ele>
        <time>2010-01-01T01:43:45Z</time>
      </trkpt>
      <trkpt lat="45.72451" lon="4.61306">
        <ele>671</ele>
        <time>2010-01-01T01:43:45Z</time>
      </trkpt>
      <trkpt lat="45.7245" lon="4.61306">
        <ele>671</ele>
        <time>2010-01-01T01:43:45Z</time>
      </trkpt>
      <trkpt lat="45.7245" lon="4.61306">
        <ele>671</ele>
        <time>2010-01-01T01:43:45Z</time>
      </trkpt>
      <trkpt lat="45.72451" lon="4.61306">
        <ele>671</ele>
        <time>2010-01-01T01:43:45Z</time>
      </trkpt>
      <trkpt lat="45.7249" lon="4.61299">
        <ele>670</ele>
        <time>2010-01-01T01:44:01Z</time>
      </trkpt>
      <trkpt lat="45.72543" lon="4.61249">
        <ele>681</ele>
        <time>2010-01-01T01:44:27Z</time>
      </trkpt>
      <trkpt lat="45.72609" lon="4.61227">
        <ele>681</ele>
        <time>2010-01-01T01:44:54Z</time>
      </trkpt>
      <trkpt lat="45.72632" lon="4.6124">
        <ele>679</ele>
        <time>2010-01-01T01:45:04Z</time>
      </trkpt>
      <trkpt lat="45.72698" lon="4.61229">
        <ele>675</ele>
        <time>2010-01-01T01:45:30Z</time>
      </trkpt>
      <trkpt lat="45.72797" lon="4.61176">
        <ele>670</ele>
        <time>2010-01-01T01:46:13Z</time>
      </trkpt>
      <trkpt lat="45.7283" lon="4.61185">
        <ele>670</ele>
        <time>2010-01-01T01:46:26Z</time>
      </trkpt>
      <trkpt lat="45.72867" lon="4.6121">
        <ele>669</ele>
        <time>2010-01-01T01:46:43Z</time>
      </trkpt>
      <trkpt lat="45.72955" lon="4.61251">
        <ele>658</ele>
        <time>2010-01-01T01:47:20Z</time>
      </trkpt>
      <trkpt lat="45.73003" lon="4.61246">
        <ele>663</ele>
        <time>2010-01-01T01:47:39Z</time>
      </trkpt>
      <trkpt lat="45.73042" lon="4.61206">
        <ele>666</ele>
        <time>2010-01-01T01:47:58Z</time>
      </trkpt>
      <trkpt lat="45.73075" lon="4.61171">
        <ele>667</ele>
        <time>2010-01-01T01:48:15Z</time>
      </trkpt>
      <trkpt lat="45.73101" lon="4.61158">
        <ele>671</ele>
        <time>2010-01-01T01:48:26Z</time>
      </trkpt>
      <trkpt lat="45.73148" lon="4.61122">
        <ele>674</ele>
        <time>2010-01-01T01:48:47Z</time>
      </trkpt>
      <trkpt lat="45.73203" lon="4.61099">
        <ele>678</ele>
        <time>2010-01-01T01:49:10Z</time>
      </trkpt>
      <trkpt lat="45.73209" lon="4.61121">
        <ele>677</ele>
        <time>2010-01-01T01:49:16Z</time>
      </trkpt>
      <trkpt lat="45.73222" lon="4.61225">
        <ele>667</ele>
        <time>2010-01-01T01:49:46Z</time>
      </trkpt>
      <trkpt lat="45.73221" lon="4.61295">
        <ele>659</ele>
        <time>2010-01-01T01:50:05Z</time>
      </trkpt>
      <trkpt lat="45.73229" lon="4.61318">
        <ele>660</ele>
        <time>2010-01-01T01:50:13Z</time>
      </trkpt>
      <trkpt lat="45.73294" lon="4.61403">
        <ele>662</ele>
        <time>2010-01-01T01:50:48Z</time>
      </trkpt>
      <trkpt lat="45.73343" lon="4.61409">
        <ele>667</ele>
        <time>2010-01-01T01:51:08Z</time>
      </trkpt>
      <trkpt lat="45.73377" lon="4.61412">
        <ele>675</ele>
        <time>2010-01-01T01:51:21Z</time>
      </trkpt>
      <trkpt lat="45.73378" lon="4.61472">
        <ele>664</ele>
        <time>2010-01-01T01:51:38Z</time>
      </trkpt>
      <trkpt lat="45.7337" lon="4.61512">
        <ele>661</ele>
        <time>2010-01-01T01:51:49Z</time>
      </trkpt>
      <trkpt lat="45.73351" lon="4.61583">
        <ele>659</ele>
        <time>2010-01-01T01:52:11Z</time>
      </trkpt>
      <trkpt lat="45.73314" lon="4.6166">
        <ele>654</ele>
        <time>2010-01-01T01:52:37Z</time>
      </trkpt>
      <trkpt lat="45.73306" lon="4.61694">
        <ele>655</ele>
        <time>2010-01-01T01:52:47Z</time>
      </trkpt>
      <trkpt lat="45.73312" lon="4.61782">
        <ele>655</ele>
        <time>2010-01-01T01:53:12Z</time>
      </trkpt>
      <trkpt lat="45.73319" lon="4.61818">
        <ele>656</ele>
        <time>2010-01-01T01:53:22Z</time>
      </trkpt>
      <trkpt lat="45.7335" lon="4.61897">
        <ele>666</ele>
        <time>2010-01-01T01:53:48Z</time>
      </trkpt>
      <trkpt lat="45.73384" lon="4.61945">
        <ele>665</ele>
        <time>2010-01-01T01:54:07Z</time>
      </trkpt>
      <trkpt lat="45.73393" lon="4.6199">
        <ele>665</ele>
        <time>2010-01-01T01:54:20Z</time>
      </trkpt>
      <trkpt lat="45.73397" lon="4.62064">
        <ele>660</ele>
        <time>2010-01-01T01:54:40Z</time>
      </trkpt>
      <trkpt lat="45.73393" lon="4.62133">
        <ele>657</ele>
        <time>2010-01-01T01:55:00Z</time>
      </trkpt>
      <trkpt lat="45.73374" lon="4.62207">
        <ele>656</ele>
        <time>2010-01-01T01:55:22Z</time>
      </trkpt>
      <trkpt lat="45.73365" lon="4.62242">
        <ele>654</ele>
        <time>2010-01-01T01:55:32Z</time>
      </trkpt>
      <trkpt lat="45.73374" lon="4.62248">
        <ele>657</ele>
        <time>2010-01-01T01:55:36Z</time>
      </trkpt>
      <trkpt lat="45.73384" lon="4.62256">
        <ele>661</ele>
        <time>2010-01-01T01:55:41Z</time>
      </trkpt>
      <trkpt lat="45.7339" lon="4.62262">
        <ele>662</ele>
        <time>2010-01-01T01:55:44Z</time>
      </trkpt>
      <trkpt lat="45.73396" lon="4.62274">
        <ele>663</ele>
        <time>2010-01-01T01:55:48Z</time>
      </trkpt>
      <trkpt lat="45.73404" lon="4.62287">
        <ele>663</ele>
        <time>2010-01-01T01:55:53Z</time>
      </trkpt>
      <trkpt lat="45.73417" lon="4.62302">
        <ele>664</ele>
        <time>2010-01-01T01:55:59Z</time>
      </trkpt>
      <trkpt lat="45.73423" lon="4.62311">
        <ele>684</ele>
        <time>2010-01-01T01:56:03Z</time>
      </trkpt>
      <trkpt lat="45.73431" lon="4.62317">
        <ele>684</ele>
        <time>2010-01-01T01:56:06Z</time>
      </trkpt>
      <trkpt lat="45.73437" lon="4.62323">
        <ele>685</ele>
        <time>2010-01-01T01:56:09Z</time>
      </trkpt>
      <trkpt lat="45.73448" lon="4.6233">
        <ele>688</ele>
        <time>2010-01-01T01:56:14Z</time>
      </trkpt>
      <trkpt lat="45.73468" lon="4.62376">
        <ele>685</ele>
        <time>2010-01-01T01:56:29Z</time>
      </trkpt>
      <trkpt lat="45.735" lon="4.62426">
        <ele>697</ele>
        <time>2010-01-01T01:56:48Z</time>
      </trkpt>
      <trkpt lat="45.73505" lon="4.62433">
        <ele>698</ele>
        <time>2010-01-01T01:56:51Z</time>
      </trkpt>
      <trkpt lat="45.73511" lon="4.62437">
        <ele>698</ele>
        <time>2010-01-01T01:56:53Z</time>
      </trkpt>
      <trkpt lat="45.73519" lon="4.62447">
        <ele>699</ele>
        <time>2010-01-01T01:56:58Z</time>
      </trkpt>
      <trkpt lat="45.73527" lon="4.62501">
        <ele>688</ele>
        <time>2010-01-01T01:57:13Z</time>
      </trkpt>
      <trkpt lat="45.73523" lon="4.62548">
        <ele>687</ele>
        <time>2010-01-01T01:57:27Z</time>
      </trkpt>
      <trkpt lat="45.73506" lon="4.62602">
        <ele>678</ele>
        <time>2010-01-01T01:57:43Z</time>
      </trkpt>
      <trkpt lat="45.7346" lon="4.62668">
        <ele>662</ele>
        <time>2010-01-01T01:58:09Z</time>
      </trkpt>
      <trkpt lat="45.73454" lon="4.62689">
        <ele>661</ele>
        <time>2010-01-01T01:58:16Z</time>
      </trkpt>
      <trkpt lat="45.73464" lon="4.62685">
        <ele>663</ele>
        <time>2010-01-01T01:58:20Z</time>
      </trkpt>
      <trkpt lat="45.73471" lon="4.62688">
        <ele>663</ele>
        <time>2010-01-01T01:58:23Z</time>
      </trkpt>
      <trkpt lat="45.73472" lon="4.62689">
        <ele>664</ele>
        <time>2010-01-01T01:58:23Z</time>
      </trkpt>
      <trkpt lat="45.73474" lon="4.6269">
        <ele>664</ele>
        <time>2010-01-01T01:58:24Z</time>
      </trkpt>
      <trkpt lat="45.73475" lon="4.62691">
        <ele>664</ele>
        <time>2010-01-01T01:58:25Z</time>
      </trkpt>
      <trkpt lat="45.73478" lon="4.62691">
        <ele>664</ele>
        <time>2010-01-01T01:58:26Z</time>
      </trkpt>
      <trkpt lat="45.73479" lon="4.6269">
        <ele>664</ele>
        <time>2010-01-01T01:58:26Z</time>
      </trkpt>
      <trkpt lat="45.73479" lon="4.62688">
        <ele>664</ele>
        <time>2010-01-01T01:58:27Z</time>
      </trkpt>
      <trkpt lat="45.7348" lon="4.62688">
        <ele>665</ele>
        <time>2010-01-01T01:58:27Z</time>
      </trkpt>
      <trkpt lat="45.73483" lon="4.62677">
        <ele>666</ele>
        <time>2010-01-01T01:58:30Z</time>
      </trkpt>
      <trkpt lat="45.7349" lon="4.62647">
        <ele>665</ele>
        <time>2010-01-01T01:58:39Z</time>
      </trkpt>
      <trkpt lat="45.73491" lon="4.62614">
        <ele>665</ele>
        <time>2010-01-01T01:58:49Z</time>
      </trkpt>
      <trkpt lat="45.7349" lon="4.62576">
        <ele>669</ele>
        <time>2010-01-01T01:58:59Z</time>
      </trkpt>
      <trkpt lat="45.7349" lon="4.6255">
        <ele>666</ele>
        <time>2010-01-01T01:59:06Z</time>
      </trkpt>
      <trkpt lat="45.73493" lon="4.62529">
        <ele>668</ele>
        <time>2010-01-01T01:59:12Z</time>
      </trkpt>
      <trkpt lat="45.735" lon="4.62504">
        <ele>677</ele>
        <time>2010-01-01T01:59:20Z</time>
      </trkpt>
      <trkpt lat="45.73506" lon="4.62482">
        <ele>691</ele>
        <time>2010-01-01T01:59:27Z</time>
      </trkpt>
      <trkpt lat="45.73507" lon="4.62465">
        <ele>696</ele>
        <time>2010-01-01T01:59:31Z</time>
      </trkpt>
      <trkpt lat="45.7351" lon="4.62444">
        <ele>698</ele>
        <time>2010-01-01T01:59:37Z</time>
      </trkpt>
      <trkpt lat="45.7352" lon="4.62432">
        <ele>700</ele>
        <time>2010-01-01T01:59:42Z</time>
      </trkpt>
      <trkpt lat="45.7353" lon="4.62418">
        <ele>702</ele>
        <time>2010-01-01T01:59:48Z</time>
      </trkpt>
      <trkpt lat="45.73536" lon="4.62405">
        <ele>712</ele>
        <time>2010-01-01T01:59:52Z</time>
      </trkpt>
      <trkpt lat="45.73538" lon="4.62385">
        <ele>713</ele>
        <time>2010-01-01T01:59:58Z</time>
      </trkpt>
      <trkpt lat="45.73543" lon="4.62363">
        <ele>716</ele>
        <time>2010-01-01T02:00:05Z</time>
      </trkpt>
      <trkpt lat="45.73543" lon="4.6235">
        <ele>717</ele>
        <time>2010-01-01T02:00:08Z</time>
      </trkpt>
      <trkpt lat="45.73541" lon="4.62325">
        <ele>721</ele>
        <time>2010-01-01T02:00:15Z</time>
      </trkpt>
      <trkpt lat="45.73532" lon="4.62289">
        <ele>720</ele>
        <time>2010-01-01T02:00:26Z</time>
      </trkpt>
      <trkpt lat="45.73528" lon="4.6226">
        <ele>719</ele>
        <time>2010-01-01T02:00:34Z</time>
      </trkpt>
      <trkpt lat="45.73531" lon="4.62233">
        <ele>721</ele>
        <time>2010-01-01T02:00:42Z</time>
      </trkpt>
      <trkpt lat="45.73535" lon="4.62198">
        <ele>722</ele>
        <time>2010-01-01T02:00:51Z</time>
      </trkpt>
      <trkpt lat="45.73541" lon="4.62152">
        <ele>723</ele>
        <time>2010-01-01T02:01:05Z</time>
      </trkpt>
      <trkpt lat="45.73542" lon="4.62118">
        <ele>723</ele>
        <time>2010-01-01T02:01:14Z</time>
      </trkpt>
      <trkpt lat="45.73551" lon="4.62056">
        <ele>725</ele>
        <time>2010-01-01T02:01:32Z</time>
      </trkpt>
      <trkpt lat="45.73558" lon="4.61996">
        <ele>726</ele>
        <time>2010-01-01T02:01:49Z</time>
      </trkpt>
      <trkpt lat="45.73563" lon="4.61954">
        <ele>725</ele>
        <time>2010-01-01T02:02:01Z</time>
      </trkpt>
      <trkpt lat="45.73567" lon="4.61893">
        <ele>724</ele>
        <time>2010-01-01T02:02:18Z</time>
      </trkpt>
      <trkpt lat="45.73578" lon="4.61828">
        <ele>726</ele>
        <time>2010-01-01T02:02:36Z</time>
      </trkpt>
      <trkpt lat="45.73666" lon="4.61686">
        <ele>726</ele>
        <time>2010-01-01T02:03:29Z</time>
      </trkpt>
      <trkpt lat="45.73683" lon="4.61626">
        <ele>730</ele>
        <time>2010-01-01T02:03:48Z</time>
      </trkpt>
      <trkpt lat="45.73698" lon="4.61604">
        <ele>732</ele>
        <time>2010-01-01T02:03:56Z</time>
      </trkpt>
      <trkpt lat="45.73703" lon="4.6159">
        <ele>732</ele>
        <time>2010-01-01T02:04:00Z</time>
      </trkpt>
      <trkpt lat="45.73708" lon="4.61577">
        <ele>738</ele>
        <time>2010-01-01T02:04:05Z</time>
      </trkpt>
      <trkpt lat="45.73715" lon="4.61567">
        <ele>739</ele>
        <time>2010-01-01T02:04:08Z</time>
      </trkpt>
      <trkpt lat="45.73722" lon="4.61561">
        <ele>740</ele>
        <time>2010-01-01T02:04:12Z</time>
      </trkpt>
      <trkpt lat="45.73732" lon="4.61555">
        <ele>740</ele>
        <time>2010-01-01T02:04:16Z</time>
      </trkpt>
      <trkpt lat="45.73741" lon="4.61556">
        <ele>741</ele>
        <time>2010-01-01T02:04:20Z</time>
      </trkpt>
      <trkpt lat="45.73752" lon="4.61558">
        <ele>745</ele>
        <time>2010-01-01T02:04:24Z</time>
      </trkpt>
      <trkpt lat="45.7377" lon="4.6156">
        <ele>746</ele>
        <time>2010-01-01T02:04:31Z</time>
      </trkpt>
      <trkpt lat="45.7378" lon="4.6156">
        <ele>747</ele>
        <time>2010-01-01T02:04:36Z</time>
      </trkpt>
      <trkpt lat="45.73794" lon="4.61559">
        <ele>747</ele>
        <time>2010-01-01T02:04:41Z</time>
      </trkpt>
      <trkpt lat="45.73831" lon="4.61554">
        <ele>748</ele>
        <time>2010-01-01T02:04:56Z</time>
      </trkpt>
      <trkpt lat="45.73866" lon="4.61521">
        <ele>749</ele>
        <time>2010-01-01T02:05:13Z</time>
      </trkpt>
      <trkpt lat="45.73888" lon="4.61483">
        <ele>761</ele>
        <time>2010-01-01T02:05:26Z</time>
      </trkpt>
      <trkpt lat="45.73917" lon="4.61446">
        <ele>763</ele>
        <time>2010-01-01T02:05:42Z</time>
      </trkpt>
      <trkpt lat="45.73946" lon="4.61435">
        <ele>763</ele>
        <time>2010-01-01T02:05:54Z</time>
      </trkpt>
      <trkpt lat="45.73959" lon="4.61438">
        <ele>762</ele>
        <time>2010-01-01T02:05:59Z</time>
      </trkpt>
      <trkpt lat="45.7398" lon="4.61439">
        <ele>763</ele>
        <time>2010-01-01T02:06:08Z</time>
      </trkpt>
      <trkpt lat="45.73994" lon="4.61439">
        <ele>764</ele>
        <time>2010-01-01T02:06:13Z</time>
      </trkpt>
      <trkpt lat="45.74004" lon="4.61433">
        <ele>763</ele>
        <time>2010-01-01T02:06:18Z</time>
      </trkpt>
      <trkpt lat="45.74015" lon="4.61426">
        <ele>763</ele>
        <time>2010-01-01T02:06:23Z</time>
      </trkpt>
      <trkpt lat="45.74033" lon="4.61413">
        <ele>773</ele>
        <time>2010-01-01T02:06:30Z</time>
      </trkpt>
      <trkpt lat="45.74046" lon="4.61399">
        <ele>773</ele>
        <time>2010-01-01T02:06:37Z</time>
      </trkpt>
      <trkpt lat="45.74058" lon="4.61377">
        <ele>775</ele>
        <time>2010-01-01T02:06:45Z</time>
      </trkpt>
      <trkpt lat="45.74068" lon="4.61356">
        <ele>777</ele>
        <time>2010-01-01T02:06:52Z</time>
      </trkpt>
      <trkpt lat="45.74084" lon="4.61332">
        <ele>779</ele>
        <time>2010-01-01T02:07:01Z</time>
      </trkpt>
      <trkpt lat="45.74096" lon="4.61311">
        <ele>779</ele>
        <time>2010-01-01T02:07:09Z</time>
      </trkpt>
      <trkpt lat="45.7411" lon="4.61291">
        <ele>780</ele>
        <time>2010-01-01T02:07:17Z</time>
      </trkpt>
      <trkpt lat="45.74113" lon="4.61282">
        <ele>781</ele>
        <time>2010-01-01T02:07:19Z</time>
      </trkpt>
      <trkpt lat="45.74127" lon="4.61278">
        <ele>780</ele>
        <time>2010-01-01T02:07:25Z</time>
      </trkpt>
      <trkpt lat="45.74201" lon="4.61259">
        <ele>769</ele>
        <time>2010-01-01T02:07:55Z</time>
      </trkpt>
      <trkpt lat="45.74246" lon="4.61257">
        <ele>767</ele>
        <time>2010-01-01T02:08:13Z</time>
      </trkpt>
      <trkpt lat="45.74309" lon="4.61264">
        <ele>765</ele>
        <time>2010-01-01T02:08:39Z</time>
      </trkpt>
      <trkpt lat="45.74362" lon="4.61287">
        <ele>768</ele>
        <time>2010-01-01T02:09:01Z</time>
      </trkpt>
      <trkpt lat="45.744" lon="4.61342">
        <ele>757</ele>
        <time>2010-01-01T02:09:22Z</time>
      </trkpt>
      <trkpt lat="45.74458" lon="4.61362">
        <ele>751</ele>
        <time>2010-01-01T02:09:46Z</time>
      </trkpt>
      <trkpt lat="45.74543" lon="4.61347">
        <ele>742</ele>
        <time>2010-01-01T02:10:21Z</time>
      </trkpt>
      <trkpt lat="45.74592" lon="4.61346">
        <ele>738</ele>
        <time>2010-01-01T02:10:40Z</time>
      </trkpt>
      <trkpt lat="45.74655" lon="4.61337">
        <ele>734</ele>
        <time>2010-01-01T02:11:05Z</time>
      </trkpt>
      <trkpt lat="45.74701" lon="4.61301">
        <ele>736</ele>
        <time>2010-01-01T02:11:26Z</time>
      </trkpt>
      <trkpt lat="45.74752" lon="4.61233">
        <ele>734</ele>
        <time>2010-01-01T02:11:54Z</time>
      </trkpt>
      <trkpt lat="45.74783" lon="4.61179">
        <ele>735</ele>
        <time>2010-01-01T02:12:14Z</time>
      </trkpt>
      <trkpt lat="45.74811" lon="4.61146">
        <ele>736</ele>
        <time>2010-01-01T02:12:28Z</time>
      </trkpt>
      <trkpt lat="45.74829" lon="4.6116">
        <ele>737</ele>
        <time>2010-01-01T02:12:36Z</time>
      </trkpt>
      <trkpt lat="45.74837" lon="4.61153">
        <ele>738</ele>
        <time>2010-01-01T02:12:40Z</time>
      </trkpt>
      <trkpt lat="45.74845" lon="4.61144">
        <ele>739</ele>
        <time>2010-01-01T02:12:44Z</time>
      </trkpt>
      <trkpt lat="45.74853" lon="4.6114">
        <ele>739</ele>
        <time>2010-01-01T02:12:48Z</time>
      </trkpt>
      <trkpt lat="45.7486" lon="4.61133">
        <ele>740</ele>
        <time>2010-01-01T02:12:51Z</time>
      </trkpt>
      <trkpt lat="45.74871" lon="4.6112">
        <ele>740</ele>
        <time>2010-01-01T02:12:57Z</time>
      </trkpt>
      <trkpt lat="45.74882" lon="4.61112">
        <ele>741</ele>
        <time>2010-01-01T02:13:02Z</time>
      </trkpt>
      <trkpt lat="45.74907" lon="4.61097">
        <ele>745</ele>
        <time>2010-01-01T02:13:13Z</time>
      </trkpt>
      <trkpt lat="45.74927" lon="4.61083">
        <ele>750</ele>
        <time>2010-01-01T02:13:22Z</time>
      </trkpt>
      <trkpt lat="45.74956" lon="4.61066">
        <ele>750</ele>
        <time>2010-01-01T02:13:34Z</time>
      </trkpt>
      <trkpt lat="45.74974" lon="4.61058">
        <ele>751</ele>
        <time>2010-01-01T02:13:42Z</time>
      </trkpt>
      <trkpt lat="45.74991" lon="4.61046">
        <ele>751</ele>
        <time>2010-01-01T02:13:49Z</time>
      </trkpt>
      <trkpt lat="45.75021" lon="4.61037">
        <ele>753</ele>
        <time>2010-01-01T02:14:02Z</time>
      </trkpt>
      <trkpt lat="45.75042" lon="4.61034">
        <ele>753</ele>
        <time>2010-01-01T02:14:10Z</time>
      </trkpt>
      <trkpt lat="45.75068" lon="4.6103">
        <ele>752</ele>
        <time>2010-01-01T02:14:20Z</time>
      </trkpt>
      <trkpt lat="45.75101" lon="4.61031">
        <ele>752</ele>
        <time>2010-01-01T02:14:34Z</time>
      </trkpt>
      <trkpt lat="45.75143" lon="4.61058">
        <ele>754</ele>
        <time>2010-01-01T02:14:52Z</time>
      </trkpt>
      <trkpt lat="45.75164" lon="4.61091">
        <ele>756</ele>
        <time>2010-01-01T02:15:05Z</time>
      </trkpt>
      <trkpt lat="45.75173" lon="4.61109">
        <ele>756</ele>
        <time>2010-01-01T02:15:11Z</time>
      </trkpt>
      <trkpt lat="45.75217" lon="4.61168">
        <ele>758</ele>
        <time>2010-01-01T02:15:35Z</time>
      </trkpt>
      <trkpt lat="45.75235" lon="4.61197">
        <ele>759</ele>
        <time>2010-01-01T02:15:46Z</time>
      </trkpt>
      <trkpt lat="45.75243" lon="4.61221">
        <ele>760</ele>
        <time>2010-01-01T02:15:53Z</time>
      </trkpt>
      <trkpt lat="45.75257" lon="4.61266">
        <ele>768</ele>
        <time>2010-01-01T02:16:07Z</time>
      </trkpt>
      <trkpt lat="45.75262" lon="4.61284">
        <ele>769</ele>
        <time>2010-01-01T02:16:12Z</time>
      </trkpt>
      <trkpt lat="45.75267" lon="4.61312">
        <ele>770</ele>
        <time>2010-01-01T02:16:21Z</time>
      </trkpt>
      <trkpt lat="45.75274" lon="4.61353">
        <ele>775</ele>
        <time>2010-01-01T02:16:32Z</time>
      </trkpt>
      <trkpt lat="45.75277" lon="4.61386">
        <ele>777</ele>
        <time>2010-01-01T02:16:42Z</time>
      </trkpt>
      <trkpt lat="45.75275" lon="4.6142">
        <ele>780</ele>
        <time>2010-01-01T02:16:51Z</time>
      </trkpt>
      <trkpt lat="45.75275" lon="4.61442">
        <ele>780</ele>
        <time>2010-01-01T02:16:57Z</time>
      </trkpt>
      <trkpt lat="45.75282" lon="4.61486">
        <ele>781</ele>
        <time>2010-01-01T02:17:10Z</time>
      </trkpt>
      <trkpt lat="45.75288" lon="4.61514">
        <ele>781</ele>
        <time>2010-01-01T02:17:18Z</time>
      </trkpt>
      <trkpt lat="45.75294" lon="4.61544">
        <ele>781</ele>
        <time>2010-01-01T02:17:27Z</time>
      </trkpt>
      <trkpt lat="45.75304" lon="4.61569">
        <ele>781</ele>
        <time>2010-01-01T02:17:35Z</time>
      </trkpt>
      <trkpt lat="45.7532" lon="4.61581">
        <ele>782</ele>
        <time>2010-01-01T02:17:42Z</time>
      </trkpt>
      <trkpt lat="45.75373" lon="4.61621">
        <ele>777</ele>
        <time>2010-01-01T02:18:06Z</time>
      </trkpt>
      <trkpt lat="45.75435" lon="4.61653">
        <ele>773</ele>
        <time>2010-01-01T02:18:32Z</time>
      </trkpt>
      <trkpt lat="45.75491" lon="4.61681">
        <ele>765</ele>
        <time>2010-01-01T02:18:56Z</time>
      </trkpt>
      <trkpt lat="45.75529" lon="4.61712">
        <ele>762</ele>
        <time>2010-01-01T02:19:14Z</time>
      </trkpt>
      <trkpt lat="45.75567" lon="4.61762">
        <ele>755</ele>
        <time>2010-01-01T02:19:35Z</time>
      </trkpt>
      <trkpt lat="45.756" lon="4.61802">
        <ele>756</ele>
        <time>2010-01-01T02:19:52Z</time>
      </trkpt>
      <trkpt lat="45.75621" lon="4.61797">
        <ele>756</ele>
        <time>2010-01-01T02:20:00Z</time>
      </trkpt>
      <trkpt lat="45.75644" lon="4.61858">
        <ele>758</ele>
        <time>2010-01-01T02:20:19Z</time>
      </trkpt>
      <trkpt lat="45.75653" lon="4.61881">
        <ele>759</ele>
        <time>2010-01-01T02:20:27Z</time>
      </trkpt>
      <trkpt lat="45.75662" lon="4.6192">
        <ele>766</ele>
        <time>2010-01-01T02:20:38Z</time>
      </trkpt>
      <trkpt lat="45.75668" lon="4.61977">
        <ele>765</ele>
        <time>2010-01-01T02:20:55Z</time>
      </trkpt>
      <trkpt lat="45.75678" lon="4.62081">
        <ele>767</ele>
        <time>2010-01-01T02:21:24Z</time>
      </trkpt>
      <trkpt lat="45.75683" lon="4.62128">
        <ele>765</ele>
        <time>2010-01-01T02:21:37Z</time>
      </trkpt>
      <trkpt lat="45.75683" lon="4.62186">
        <ele>766</ele>
        <time>2010-01-01T02:21:53Z</time>
      </trkpt>
      <trkpt lat="45.75692" lon="4.62252">
        <ele>767</ele>
        <time>2010-01-01T02:22:12Z</time>
      </trkpt>
      <trkpt lat="45.75693" lon="4.62261">
        <ele>767</ele>
        <time>2010-01-01T02:22:15Z</time>
      </trkpt>
      <trkpt lat="45.75704" lon="4.62414">
        <ele>771</ele>
        <time>2010-01-01T02:22:58Z</time>
      </trkpt>
      <trkpt lat="45.7571" lon="4.62516">
        <ele>771</ele>
        <time>2010-01-01T02:23:26Z</time>
      </trkpt>
      <trkpt lat="45.7572" lon="4.62649">
        <ele>767</ele>
        <time>2010-01-01T02:24:03Z</time>
      </trkpt>
      <trkpt lat="45.75731" lon="4.62715">
        <ele>761</ele>
        <time>2010-01-01T02:24:23Z</time>
      </trkpt>
      <trkpt lat="45.75756" lon="4.62767">
        <ele>763</ele>
        <time>2010-01-01T02:24:40Z</time>
      </trkpt>
      <trkpt lat="45.75789" lon="4.62796">
        <ele>761</ele>
        <time>2010-01-01T02:24:56Z</time>
      </trkpt>
      <trkpt lat="45.75831" lon="4.62818">
        <ele>761</ele>
        <time>2010-01-01T02:25:14Z</time>
      </trkpt>
      <trkpt lat="45.75913" lon="4.62828">
        <ele>762</ele>
        <time>2010-01-01T02:25:47Z</time>
      </trkpt>
      <trkpt lat="45.7596" lon="4.62807">
        <ele>760</ele>
        <time>2010-01-01T02:26:06Z</time>
      </trkpt>
      <trkpt lat="45.75979" lon="4.62765">
        <ele>761</ele>
        <time>2010-01-01T02:26:20Z</time>
      </trkpt>
      <trkpt lat="45.76008" lon="4.62653">
        <ele>760</ele>
        <time>2010-01-01T02:26:54Z</time>
      </trkpt>
      <trkpt lat="45.76013" lon="4.62634">
        <ele>759</ele>
        <time>2010-01-01T02:26:59Z</time>
      </trkpt>
      <trkpt lat="45.76027" lon="4.62609">
        <ele>759</ele>
        <time>2010-01-01T02:27:08Z</time>
      </trkpt>
      <trkpt lat="45.76087" lon="4.6264">
        <ele>752</ele>
        <time>2010-01-01T02:27:34Z</time>
      </trkpt>
      <trkpt lat="45.76162" lon="4.62691">
        <ele>746</ele>
        <time>2010-01-01T02:28:07Z</time>
      </trkpt>
      <trkpt lat="45.76203" lon="4.62753">
        <ele>737</ele>
        <time>2010-01-01T02:28:31Z</time>
      </trkpt>
      <trkpt lat="45.7624" lon="4.62829">
        <ele>733</ele>
        <time>2010-01-01T02:28:57Z</time>
      </trkpt>
      <trkpt lat="45.76282" lon="4.62888">
        <ele>723</ele>
        <time>2010-01-01T02:29:20Z</time>
      </trkpt>
      <trkpt lat="45.76288" lon="4.62899">
        <ele>723</ele>
        <time>2010-01-01T02:29:24Z</time>
      </trkpt>
      <trkpt lat="45.76297" lon="4.6292">
        <ele>723</ele>
        <time>2010-01-01T02:29:31Z</time>
      </trkpt>
      <trkpt lat="45.76304" lon="4.62947">
        <ele>723</ele>
        <time>2010-01-01T02:29:39Z</time>
      </trkpt>
      <trkpt lat="45.76309" lon="4.62979">
        <ele>724</ele>
        <time>2010-01-01T02:29:48Z</time>
      </trkpt>
      <trkpt lat="45.76317" lon="4.63027">
        <ele>725</ele>
        <time>2010-01-01T02:30:02Z</time>
      </trkpt>
      <trkpt lat="45.76325" lon="4.63057">
        <ele>726</ele>
        <time>2010-01-01T02:30:11Z</time>
      </trkpt>
      <trkpt lat="45.76323" lon="4.63096">
        <ele>727</ele>
        <time>2010-01-01T02:30:22Z</time>
      </trkpt>
      <trkpt lat="45.76283" lon="4.63142">
        <ele>721</ele>
        <time>2010-01-01T02:30:43Z</time>
      </trkpt>
      <trkpt lat="45.76263" lon="4.63164">
        <ele>718</ele>
        <time>2010-01-01T02:30:53Z</time>
      </trkpt>
      <trkpt lat="45.76254" lon="4.63194">
        <ele>718</ele>
        <time>2010-01-01T02:31:02Z</time>
      </trkpt>
      <trkpt lat="45.76255" lon="4.63237">
        <ele>715</ele>
        <time>2010-01-01T02:31:14Z</time>
      </trkpt>
      <trkpt lat="45.76249" lon="4.63289">
        <ele>701</ele>
        <time>2010-01-01T02:31:29Z</time>
      </trkpt>
      <trkpt lat="45.76228" lon="4.63315">
        <ele>699</ele>
        <time>2010-01-01T02:31:40Z</time>
      </trkpt>
      <trkpt lat="45.76229" lon="4.63392">
        <ele>694</ele>
        <time>2010-01-01T02:32:02Z</time>
      </trkpt>
      <trkpt lat="45.76226" lon="4.63501">
        <ele>683</ele>
        <time>2010-01-01T02:32:32Z</time>
      </trkpt>
      <trkpt lat="45.76243" lon="4.63608">
        <ele>673</ele>
        <time>2010-01-01T02:33:02Z</time>
      </trkpt>
      <trkpt lat="45.76249" lon="4.63687">
        <ele>663</ele>
        <time>2010-01-01T02:33:25Z</time>
      </trkpt>
      <trkpt lat="45.76256" lon="4.6374">
        <ele>662</ele>
        <time>2010-01-01T02:33:40Z</time>
      </trkpt>
      <trkpt lat="45.76281" lon="4.63821">
        <ele>652</ele>
        <time>2010-01-01T02:34:05Z</time>
      </trkpt>
      <trkpt lat="45.7626" lon="4.63834">
        <ele>644</ele>
        <time>2010-01-01T02:34:14Z</time>
      </trkpt>
      <trkpt lat="45.76184" lon="4.63836">
        <ele>634</ele>
        <time>2010-01-01T02:34:44Z</time>
      </trkpt>
      <trkpt lat="45.76128" lon="4.63832">
        <ele>630</ele>
        <time>2010-01-01T02:35:07Z</time>
      </trkpt>
      <trkpt lat="45.76115" lon="4.63853">
        <ele>622</ele>
        <time>2010-01-01T02:35:14Z</time>
      </trkpt>
      <trkpt lat="45.76096" lon="4.63922">
        <ele>612</ele>
        <time>2010-01-01T02:35:35Z</time>
      </trkpt>
      <trkpt lat="45.76085" lon="4.63972">
        <ele>607</ele>
        <time>2010-01-01T02:35:50Z</time>
      </trkpt>
      <trkpt lat="45.76075" lon="4.64024">
        <ele>594</ele>
        <time>2010-01-01T02:36:05Z</time>
      </trkpt>
      <trkpt lat="45.76086" lon="4.64071">
        <ele>594</ele>
        <time>2010-01-01T02:36:19Z</time>
      </trkpt>
      <trkpt lat="45.76061" lon="4.64093">
        <ele>582</ele>
        <time>2010-01-01T02:36:30Z</time>
      </trkpt>
      <trkpt lat="45.76068" lon="4.64133">
        <ele>577</ele>
        <time>2010-01-01T02:36:42Z</time>
      </trkpt>
      <trkpt lat="45.76072" lon="4.64219">
        <ele>562</ele>
        <time>2010-01-01T02:37:06Z</time>
      </trkpt>
      <trkpt lat="45.76061" lon="4.64245">
        <ele>560</ele>
        <time>2010-01-01T02:37:15Z</time>
      </trkpt>
      <trkpt lat="45.76021" lon="4.64246">
        <ele>552</ele>
        <time>2010-01-01T02:37:31Z</time>
      </trkpt>
      <trkpt lat="45.76017" lon="4.64305">
        <ele>542</ele>
        <time>2010-01-01T02:37:47Z</time>
      </trkpt>
      <trkpt lat="45.76019" lon="4.64376">
        <ele>531</ele>
        <time>2010-01-01T02:38:07Z</time>
      </trkpt>
      <trkpt lat="45.75995" lon="4.6437">
        <ele>517</ele>
        <time>2010-01-01T02:38:17Z</time>
      </trkpt>
      <trkpt lat="45.75943" lon="4.64308">
        <ele>519</ele>
        <time>2010-01-01T02:38:44Z</time>
      </trkpt>
      <trkpt lat="45.75925" lon="4.64259">
        <ele>517</ele>
        <time>2010-01-01T02:39:00Z</time>
      </trkpt>
      <trkpt lat="45.75896" lon="4.6419">
        <ele>516</ele>
        <time>2010-01-01T02:39:22Z</time>
      </trkpt>
      <trkpt lat="45.75869" lon="4.64164">
        <ele>524</ele>
        <time>2010-01-01T02:39:35Z</time>
      </trkpt>
      <trkpt lat="45.75809" lon="4.64153">
        <ele>513</ele>
        <time>2010-01-01T02:39:59Z</time>
      </trkpt>
      <trkpt lat="45.75771" lon="4.6414">
        <ele>512</ele>
        <time>2010-01-01T02:40:15Z</time>
      </trkpt>
      <trkpt lat="45.75732" lon="4.64093">
        <ele>511</ele>
        <time>2010-01-01T02:40:35Z</time>
      </trkpt>
      <trkpt lat="45.75736" lon="4.64063">
        <ele>516</ele>
        <time>2010-01-01T02:40:44Z</time>
      </trkpt>
      <trkpt lat="45.75763" lon="4.64002">
        <ele>522</ele>
        <time>2010-01-01T02:41:04Z</time>
      </trkpt>
      <trkpt lat="45.75777" lon="4.63976">
        <ele>529</ele>
        <time>2010-01-01T02:41:13Z</time>
      </trkpt>
      <trkpt lat="45.75733" lon="4.63993">
        <ele>525</ele>
        <time>2010-01-01T02:41:31Z</time>
      </trkpt>
      <trkpt lat="45.75669" lon="4.64045">
        <ele>517</ele>
        <time>2010-01-01T02:42:00Z</time>
      </trkpt>
      <trkpt lat="45.75645" lon="4.64103">
        <ele>512</ele>
        <time>2010-01-01T02:42:19Z</time>
      </trkpt>
      <trkpt lat="45.75643" lon="4.64153">
        <ele>511</ele>
        <time>2010-01-01T02:42:33Z</time>
      </trkpt>
      <trkpt lat="45.75647" lon="4.64188">
        <ele>509</ele>
        <time>2010-01-01T02:42:43Z</time>
      </trkpt>
      <trkpt lat="45.75649" lon="4.64209">
        <ele>509</ele>
        <time>2010-01-01T02:42:49Z</time>
      </trkpt>
      <trkpt lat="45.75651" lon="4.64235">
        <ele>509</ele>
        <time>2010-01-01T02:42:57Z</time>
      </trkpt>
      <trkpt lat="45.75656" lon="4.64281">
        <ele>509</ele>
        <time>2010-01-01T02:43:09Z</time>
      </trkpt>
      <trkpt lat="45.75654" lon="4.64334">
        <ele>511</ele>
        <time>2010-01-01T02:43:24Z</time>
      </trkpt>
      <trkpt lat="45.75666" lon="4.64388">
        <ele>510</ele>
        <time>2010-01-01T02:43:40Z</time>
      </trkpt>
      <trkpt lat="45.75693" lon="4.64459">
        <ele>513</ele>
        <time>2010-01-01T02:44:03Z</time>
      </trkpt>
      <trkpt lat="45.75699" lon="4.64576">
        <ele>509</ele>
        <time>2010-01-01T02:44:35Z</time>
      </trkpt>
      <trkpt lat="45.75712" lon="4.6463">
        <ele>506</ele>
        <time>2010-01-01T02:44:51Z</time>
      </trkpt>
      <trkpt lat="45.75715" lon="4.64703">
        <ele>500</ele>
        <time>2010-01-01T02:45:12Z</time>
      </trkpt>
      <trkpt lat="45.75748" lon="4.64779">
        <ele>495</ele>
        <time>2010-01-01T02:45:37Z</time>
      </trkpt>
      <trkpt lat="45.75772" lon="4.64818">
        <ele>496</ele>
        <time>2010-01-01T02:45:52Z</time>
      </trkpt>
      <trkpt lat="45.75789" lon="4.6485">
        <ele>489</ele>
        <time>2010-01-01T02:46:03Z</time>
      </trkpt>
      <trkpt lat="45.758" lon="4.64878">
        <ele>487</ele>
        <time>2010-01-01T02:46:12Z</time>
      </trkpt>
      <trkpt lat="45.75785" lon="4.64888">
        <ele>487</ele>
        <time>2010-01-01T02:46:19Z</time>
      </trkpt>
      <trkpt lat="45.7577" lon="4.64969">
        <ele>475</ele>
        <time>2010-01-01T02:46:42Z</time>
      </trkpt>
      <trkpt lat="45.75758" lon="4.65039">
        <ele>468</ele>
        <time>2010-01-01T02:47:02Z</time>
      </trkpt>
      <trkpt lat="45.7574" lon="4.65039">
        <ele>467</ele>
        <time>2010-01-01T02:47:09Z</time>
      </trkpt>
      <trkpt lat="45.75706" lon="4.65011">
        <ele>466</ele>
        <time>2010-01-01T02:47:25Z</time>
      </trkpt>
      <trkpt lat="45.75675" lon="4.64978">
        <ele>468</ele>
        <time>2010-01-01T02:47:40Z</time>
      </trkpt>
      <trkpt lat="45.75642" lon="4.6494">
        <ele>463</ele>
        <time>2010-01-01T02:47:57Z</time>
      </trkpt>
      <trkpt lat="45.75609" lon="4.64894">
        <ele>465</ele>
        <time>2010-01-01T02:48:16Z</time>
      </trkpt>
      <trkpt lat="45.75578" lon="4.64852">
        <ele>459</ele>
        <time>2010-01-01T02:48:33Z</time>
      </trkpt>
      <trkpt lat="45.75551" lon="4.64806">
        <ele>461</ele>
        <time>2010-01-01T02:48:50Z</time>
      </trkpt>
      <trkpt lat="45.7553" lon="4.64785">
        <ele>461</ele>
        <time>2010-01-01T02:49:00Z</time>
      </trkpt>
      <trkpt lat="45.75522" lon="4.64778">
        <ele>460</ele>
        <time>2010-01-01T02:49:03Z</time>
      </trkpt>
      <trkpt lat="45.75505" lon="4.64762">
        <ele>459</ele>
        <time>2010-01-01T02:49:12Z</time>
      </trkpt>
      <trkpt lat="45.7548" lon="4.64739">
        <ele>461</ele>
        <time>2010-01-01T02:49:24Z</time>
      </trkpt>
      <trkpt lat="45.75455" lon="4.64749">
        <ele>462</ele>
        <time>2010-01-01T02:49:34Z</time>
      </trkpt>
      <trkpt lat="45.75408" lon="4.64802">
        <ele>461</ele>
        <time>2010-01-01T02:49:58Z</time>
      </trkpt>
      <trkpt lat="45.75397" lon="4.64797">
        <ele>462</ele>
        <time>2010-01-01T02:50:02Z</time>
      </trkpt>
      <trkpt lat="45.75391" lon="4.64793">
        <ele>462</ele>
        <time>2010-01-01T02:50:05Z</time>
      </trkpt>
      <trkpt lat="45.75389" lon="4.64783">
        <ele>463</ele>
        <time>2010-01-01T02:50:08Z</time>
      </trkpt>
      <trkpt lat="45.7539" lon="4.64765">
        <ele>464</ele>
        <time>2010-01-01T02:50:13Z</time>
      </trkpt>
      <trkpt lat="45.75384" lon="4.64751">
        <ele>464</ele>
        <time>2010-01-01T02:50:18Z</time>
      </trkpt>
      <trkpt lat="45.75376" lon="4.64743">
        <ele>469</ele>
        <time>2010-01-01T02:50:22Z</time>
      </trkpt>
      <trkpt lat="45.75355" lon="4.64723">
        <ele>470</ele>
        <time>2010-01-01T02:50:31Z</time>
      </trkpt>
      <trkpt lat="45.75339" lon="4.64721">
        <ele>471</ele>
        <time>2010-01-01T02:50:38Z</time>
      </trkpt>
      <trkpt lat="45.75317" lon="4.64724">
        <ele>477</ele>
        <time>2010-01-01T02:50:47Z</time>
      </trkpt>
      <trkpt lat="45.75244" lon="4.64749">
        <ele>480</ele>
        <time>2010-01-01T02:51:17Z</time>
      </trkpt>
      <trkpt lat="45.75227" lon="4.64761">
        <ele>476</ele>
        <time>2010-01-01T02:51:24Z</time>
      </trkpt>
      <trkpt lat="45.75195" lon="4.64781">
        <ele>476</ele>
        <time>2010-01-01T02:51:38Z</time>
      </trkpt>
      <trkpt lat="45.75143" lon="4.64799">
        <ele>481</ele>
        <time>2010-01-01T02:52:00Z</time>
      </trkpt>
      <trkpt lat="45.75109" lon="4.64845">
        <ele>473</ele>
        <time>2010-01-01T02:52:19Z</time>
      </trkpt>
      <trkpt lat="45.75076" lon="4.64875">
        <ele>477</ele>
        <time>2010-01-01T02:52:34Z</time>
      </trkpt>
      <trkpt lat="45.75063" lon="4.64874">
        <ele>477</ele>
        <time>2010-01-01T02:52:40Z</time>
      </trkpt>
      <trkpt lat="45.7505" lon="4.64869">
        <ele>478</ele>
        <time>2010-01-01T02:52:45Z</time>
      </trkpt>
      <trkpt lat="45.75032" lon="4.64862">
        <ele>479</ele>
        <time>2010-01-01T02:52:52Z</time>
      </trkpt>
      <trkpt lat="45.74934" lon="4.64826">
        <ele>485</ele>
        <time>2010-01-01T02:53:33Z</time>
      </trkpt>
      <trkpt lat="45.74903" lon="4.64746">
        <ele>502</ele>
        <time>2010-01-01T02:53:58Z</time>
      </trkpt>
      <trkpt lat="45.74884" lon="4.6474">
        <ele>507</ele>
        <time>2010-01-01T02:54:06Z</time>
      </trkpt>
      <trkpt lat="45.74855" lon="4.64747">
        <ele>508</ele>
        <time>2010-01-01T02:54:18Z</time>
      </trkpt>
      <trkpt lat="45.74833" lon="4.64758">
        <ele>507</ele>
        <time>2010-01-01T02:54:27Z</time>
      </trkpt>
      <trkpt lat="45.74813" lon="4.64785">
        <ele>509</ele>
        <time>2010-01-01T02:54:38Z</time>
      </trkpt>
      <trkpt lat="45.74805" lon="4.648">
        <ele>508</ele>
        <time>2010-01-01T02:54:44Z</time>
      </trkpt>
      <trkpt lat="45.7479" lon="4.64815">
        <ele>510</ele>
        <time>2010-01-01T02:54:51Z</time>
      </trkpt>
      <trkpt lat="45.74778" lon="4.6484">
        <ele>505</ele>
        <time>2010-01-01T02:54:59Z</time>
      </trkpt>
      <trkpt lat="45.74767" lon="4.64855">
        <ele>506</ele>
        <time>2010-01-01T02:55:05Z</time>
      </trkpt>
      <trkpt lat="45.7475" lon="4.64862">
        <ele>507</ele>
        <time>2010-01-01T02:55:12Z</time>
      </trkpt>
      <trkpt lat="45.74743" lon="4.64877">
        <ele>516</ele>
        <time>2010-01-01T02:55:17Z</time>
      </trkpt>
      <trkpt lat="45.74743" lon="4.64909">
        <ele>512</ele>
        <time>2010-01-01T02:55:26Z</time>
      </trkpt>
      <trkpt lat="45.74754" lon="4.64943">
        <ele>501</ele>
        <time>2010-01-01T02:55:37Z</time>
      </trkpt>
      <trkpt lat="45.74722" lon="4.65016">
        <ele>504</ele>
        <time>2010-01-01T02:56:01Z</time>
      </trkpt>
      <trkpt lat="45.74659" lon="4.65138">
        <ele>502</ele>
        <time>2010-01-01T02:56:43Z</time>
      </trkpt>
      <trkpt lat="45.74631" lon="4.65139">
        <ele>503</ele>
        <time>2010-01-01T02:56:54Z</time>
      </trkpt>
      <trkpt lat="45.74615" lon="4.65155">
        <ele>504</ele>
        <time>2010-01-01T02:57:02Z</time>
      </trkpt>
      <trkpt lat="45.74606" lon="4.65269">
        <ele>493</ele>
        <time>2010-01-01T02:57:34Z</time>
      </trkpt>
      <trkpt lat="45.74591" lon="4.65344">
        <ele>490</ele>
        <time>2010-01-01T02:57:56Z</time>
      </trkpt>
      <trkpt lat="45.74568" lon="4.65385">
        <ele>491</ele>
        <time>2010-01-01T02:58:11Z</time>
      </trkpt>
      <trkpt lat="45.74512" lon="4.65479">
        <ele>489</ele>
        <time>2010-01-01T02:58:45Z</time>
      </trkpt>
      <trkpt lat="45.74475" lon="4.65549">
        <ele>485</ele>
        <time>2010-01-01T02:59:10Z</time>
      </trkpt>
      <trkpt lat="45.74435" lon="4.6562">
        <ele>481</ele>
        <time>2010-01-01T02:59:35Z</time>
      </trkpt>
      <trkpt lat="45.74391" lon="4.65681">
        <ele>480</ele>
        <time>2010-01-01T03:00:00Z</time>
      </trkpt>
      <trkpt lat="45.74347" lon="4.65736">
        <ele>481</ele>
        <time>2010-01-01T03:00:23Z</time>
      </trkpt>
      <trkpt lat="45.74288" lon="4.65835">
        <ele>483</ele>
        <time>2010-01-01T03:01:00Z</time>
      </trkpt>
      <trkpt lat="45.74275" lon="4.65879">
        <ele>483</ele>
        <time>2010-01-01T03:01:13Z</time>
      </trkpt>
      <trkpt lat="45.74239" lon="4.6598">
        <ele>481</ele>
        <time>2010-01-01T03:01:45Z</time>
      </trkpt>
      <trkpt lat="45.7421" lon="4.66047">
        <ele>478</ele>
        <time>2010-01-01T03:02:07Z</time>
      </trkpt>
      <trkpt lat="45.74177" lon="4.66098">
        <ele>476</ele>
        <time>2010-01-01T03:02:26Z</time>
      </trkpt>
      <trkpt lat="45.7414" lon="4.66139">
        <ele>472</ele>
        <time>2010-01-01T03:02:45Z</time>
      </trkpt>
      <trkpt lat="45.74094" lon="4.6617">
        <ele>468</ele>
        <time>2010-01-01T03:03:05Z</time>
      </trkpt>
      <trkpt lat="45.74056" lon="4.6619">
        <ele>466</ele>
        <time>2010-01-01T03:03:21Z</time>
      </trkpt>
      <trkpt lat="45.74001" lon="4.66212">
        <ele>465</ele>
        <time>2010-01-01T03:03:44Z</time>
      </trkpt>
      <trkpt lat="45.73962" lon="4.66228">
        <ele>461</ele>
        <time>2010-01-01T03:04:01Z</time>
      </trkpt>
      <trkpt lat="45.73936" lon="4.66236">
        <ele>460</ele>
        <time>2010-01-01T03:04:11Z</time>
      </trkpt>
      <trkpt lat="45.73895" lon="4.66269">
        <ele>457</ele>
        <time>2010-01-01T03:04:30Z</time>
      </trkpt>
      <trkpt lat="45.7385" lon="4.66302">
        <ele>456</ele>
        <time>2010-01-01T03:04:50Z</time>
      </trkpt>
      <trkpt lat="45.73844" lon="4.66293">
        <ele>456</ele>
        <time>2010-01-01T03:04:54Z</time>
      </trkpt>
      <trkpt lat="45.73855" lon="4.6626">
        <ele>456</ele>
        <time>2010-01-01T03:05:04Z</time>
      </trkpt>
      <trkpt lat="45.73876" lon="4.66187">
        <ele>453</ele>
        <time>2010-01-01T03:05:26Z</time>
      </trkpt>
      <trkpt lat="45.73892" lon="4.66129">
        <ele>449</ele>
        <time>2010-01-01T03:05:43Z</time>
      </trkpt>
      <trkpt lat="45.73908" lon="4.6607">
        <ele>445</ele>
        <time>2010-01-01T03:06:01Z</time>
      </trkpt>
      <trkpt lat="45.73925" lon="4.6604">
        <ele>448</ele>
        <time>2010-01-01T03:06:12Z</time>
      </trkpt>
      <trkpt lat="45.7395" lon="4.65993">
        <ele>444</ele>
        <time>2010-01-01T03:06:28Z</time>
      </trkpt>
      <trkpt lat="45.73978" lon="4.65945">
        <ele>445</ele>
        <time>2010-01-01T03:06:46Z</time>
      </trkpt>
      <trkpt lat="45.74008" lon="4.65893">
        <ele>454</ele>
        <time>2010-01-01T03:07:05Z</time>
      </trkpt>
      <trkpt lat="45.74012" lon="4.65846">
        <ele>453</ele>
        <time>2010-01-01T03:07:18Z</time>
      </trkpt>
      <trkpt lat="45.74014" lon="4.65827">
        <ele>453</ele>
        <time>2010-01-01T03:07:23Z</time>
      </trkpt>
      <trkpt lat="45.7404" lon="4.65734">
        <ele>453</ele>
        <time>2010-01-01T03:07:51Z</time>
      </trkpt>
      <trkpt lat="45.74058" lon="4.65701">
        <ele>453</ele>
        <time>2010-01-01T03:08:03Z</time>
      </trkpt>
      <trkpt lat="45.74035" lon="4.65671">
        <ele>450</ele>
        <time>2010-01-01T03:08:15Z</time>
      </trkpt>
      <trkpt lat="45.73992" lon="4.6567">
        <ele>441</ele>
        <time>2010-01-01T03:08:33Z</time>
      </trkpt>
      <trkpt lat="45.7396" lon="4.65686">
        <ele>437</ele>
        <time>2010-01-01T03:08:46Z</time>
      </trkpt>
      <trkpt lat="45.73909" lon="4.6571">
        <ele>427</ele>
        <time>2010-01-01T03:09:08Z</time>
      </trkpt>
      <trkpt lat="45.73879" lon="4.65703">
        <ele>425</ele>
        <time>2010-01-01T03:09:20Z</time>
      </trkpt>
      <trkpt lat="45.73877" lon="4.65703">
        <ele>425</ele>
        <time>2010-01-01T03:09:20Z</time>
      </trkpt>
    </trkseg>
  </trk>
</gpx>